Wetterdaten: Samstag, 04.04.2026
Datum Zeit Temp. Aussen Temp. o. S. Temp +5cm Feuchte Auss Luftdruck Regen Sonnenschein Solar Windböen Empfang
04.04.2026 00:00 11,3 °C 10,6 °C 6,7 °C 91 % 1014,4 hPa 0,0 l/m² 0 min 0 W/m² 29,0 km/h (5 Bft) 100,00 %
04.04.2026 00:02 11,3 °C 10,6 °C 6,7 °C 91 % 1014,3 hPa 0,0 l/m² 0 min 0 W/m² 25,7 km/h (4 Bft) 97,67 %
04.04.2026 00:04 11,3 °C 10,6 °C 6,7 °C 91 % 1014,4 hPa 0,0 l/m² 0 min 0 W/m² 29,0 km/h (5 Bft) 97,87 %
04.04.2026 00:08 11,3 °C 10,6 °C 6,7 °C 91 % 1014,3 hPa 0,0 l/m² 0 min 0 W/m² 29,0 km/h (5 Bft) 97,87 %
04.04.2026 00:10 11,3 °C 10,6 °C 6,7 °C 91 % 1014,2 hPa 0,0 l/m² 0 min 0 W/m² 19,3 km/h (3 Bft) 97,87 %
04.04.2026 00:12 11,3 °C 10,6 °C 6,7 °C 91 % 1014,2 hPa 0,0 l/m² 0 min 0 W/m² 22,5 km/h (4 Bft) 94,00 %
04.04.2026 00:14 11,3 °C 10,6 °C 6,7 °C 91 % 1014,2 hPa 0,0 l/m² 0 min 0 W/m² 16,1 km/h (3 Bft) 97,87 %
04.04.2026 00:16 11,3 °C 10,6 °C 6,7 °C 91 % 1014,2 hPa 0,0 l/m² 0 min 0 W/m² 12,9 km/h (3 Bft) 97,87 %
04.04.2026 00:18 11,3 °C 10,6 °C 6,7 °C 91 % 1014,3 hPa 0,0 l/m² 0 min 0 W/m² 19,3 km/h (3 Bft) 97,37 %
04.04.2026 00:20 11,3 °C 10,6 °C 6,7 °C 91 % 1014,3 hPa 0,0 l/m² 0 min 0 W/m² 29,0 km/h (5 Bft) 97,87 %
04.04.2026 00:22 11,3 °C 10,6 °C 6,7 °C 91 % 1014,4 hPa 0,0 l/m² 0 min 0 W/m² 22,5 km/h (4 Bft) 95,74 %
04.04.2026 00:24 11,3 °C 10,6 °C 6,7 °C 91 % 1014,4 hPa 0,0 l/m² 0 min 0 W/m² 19,3 km/h (3 Bft) 94,00 %
04.04.2026 00:26 11,3 °C 10,6 °C 6,7 °C 91 % 1014,4 hPa 0,0 l/m² 0 min 0 W/m² 12,9 km/h (3 Bft) 96,00 %
04.04.2026 00:28 11,3 °C 10,6 °C 6,7 °C 91 % 1014,3 hPa 0,0 l/m² 0 min 0 W/m² 25,7 km/h (4 Bft) 95,24 %
04.04.2026 00:30 11,4 °C 10,6 °C 7,2 °C 91 % 1014,3 hPa 0,0 l/m² 0 min 0 W/m² 25,7 km/h (4 Bft) 91,49 %
04.04.2026 00:32 11,4 °C 10,6 °C 7,2 °C 91 % 1014,3 hPa 0,0 l/m² 0 min 0 W/m² 29,0 km/h (5 Bft) 94,44 %
04.04.2026 00:34 11,4 °C 10,6 °C 7,2 °C 91 % 1014,4 hPa 0,0 l/m² 0 min 0 W/m² 22,5 km/h (4 Bft) 94,74 %
04.04.2026 00:36 11,4 °C 10,6 °C 7,2 °C 91 % 1014,3 hPa 0,0 l/m² 0 min 0 W/m² 22,5 km/h (4 Bft) 96,00 %
04.04.2026 00:38 11,4 °C 10,6 °C 7,2 °C 91 % 1014,3 hPa 0,0 l/m² 0 min 0 W/m² 29,0 km/h (5 Bft) 96,00 %
04.04.2026 00:40 11,4 °C 10,6 °C 7,2 °C 91 % 1014,4 hPa 0,0 l/m² 0 min 0 W/m² 19,3 km/h (3 Bft) 93,62 %
04.04.2026 00:42 11,4 °C 10,6 °C 7,2 °C 91 % 1014,3 hPa 0,0 l/m² 0 min 0 W/m² 19,3 km/h (3 Bft) 95,74 %
04.04.2026 00:44 11,4 °C 10,6 °C 7,2 °C 92 % 1014,4 hPa 0,0 l/m² 0 min 0 W/m² 16,1 km/h (3 Bft) 95,74 %
04.04.2026 00:46 11,4 °C 10,6 °C 7,2 °C 92 % 1014,5 hPa 0,0 l/m² 0 min 0 W/m² 9,7 km/h (2 Bft) 94,74 %
04.04.2026 00:48 11,4 °C 10,6 °C 7,2 °C 92 % 1014,4 hPa 0,0 l/m² 0 min 0 W/m² 12,9 km/h (3 Bft) 95,74 %
04.04.2026 00:50 11,4 °C 10,6 °C 6,7 °C 92 % 1014,6 hPa 0,0 l/m² 0 min 0 W/m² 16,1 km/h (3 Bft) 95,74 %
04.04.2026 00:52 11,4 °C 10,6 °C 7,2 °C 92 % 1014,5 hPa 0,0 l/m² 0 min 0 W/m² 25,7 km/h (4 Bft) 95,74 %
04.04.2026 00:54 11,4 °C 10,6 °C 6,7 °C 92 % 1014,6 hPa 0,0 l/m² 0 min 0 W/m² 6,4 km/h (2 Bft) 98,00 %
04.04.2026 00:56 11,4 °C 10,6 °C 6,7 °C 92 % 1014,6 hPa 0,0 l/m² 0 min 0 W/m² 19,3 km/h (3 Bft) 100,00 %
04.04.2026 00:58 11,4 °C 10,6 °C 6,7 °C 92 % 1014,6 hPa 0,0 l/m² 0 min 0 W/m² 22,5 km/h (4 Bft) 95,92 %
04.04.2026 01:00 11,4 °C 10,6 °C 6,7 °C 92 % 1014,6 hPa 0,0 l/m² 0 min 0 W/m² 19,3 km/h (3 Bft) 100,00 %
04.04.2026 01:02 11,4 °C 10,6 °C 6,7 °C 92 % 1014,7 hPa 0,0 l/m² 0 min 0 W/m² 25,7 km/h (4 Bft) 100,00 %
04.04.2026 01:04 11,4 °C 10,6 °C 6,7 °C 92 % 1014,7 hPa 0,0 l/m² 0 min 0 W/m² 25,7 km/h (4 Bft) 100,00 %
04.04.2026 01:06 11,4 °C 10,6 °C 6,7 °C 92 % 1014,7 hPa 0,0 l/m² 0 min 0 W/m² 29,0 km/h (5 Bft) 95,74 %
04.04.2026 01:08 11,4 °C 10,6 °C 6,7 °C 92 % 1014,7 hPa 0,0 l/m² 0 min 0 W/m² 12,9 km/h (3 Bft) 100,00 %
04.04.2026 01:10 11,4 °C 10,6 °C 6,7 °C 92 % 1014,7 hPa 0,0 l/m² 0 min 0 W/m² 16,1 km/h (3 Bft) 100,00 %
04.04.2026 01:12 11,4 °C 10,6 °C 6,7 °C 93 % 1014,6 hPa 0,0 l/m² 0 min 0 W/m² 25,7 km/h (4 Bft) 98,00 %
04.04.2026 01:14 11,4 °C 10,6 °C 6,7 °C 93 % 1014,6 hPa 0,0 l/m² 0 min 0 W/m² 25,7 km/h (4 Bft) 100,00 %
04.04.2026 01:16 11,4 °C 10,6 °C 6,7 °C 93 % 1014,7 hPa 0,0 l/m² 0 min 0 W/m² 22,5 km/h (4 Bft) 100,00 %
04.04.2026 01:18 11,3 °C 10,6 °C 6,7 °C 93 % 1014,7 hPa 0,0 l/m² 0 min 0 W/m² 19,3 km/h (3 Bft) 100,00 %
04.04.2026 01:20 11,3 °C 10,6 °C 6,7 °C 93 % 1014,8 hPa 0,0 l/m² 0 min 0 W/m² 16,1 km/h (3 Bft) 100,00 %
04.04.2026 01:22 11,3 °C 10,6 °C 6,7 °C 93 % 1014,7 hPa 0,0 l/m² 0 min 0 W/m² 16,1 km/h (3 Bft) 97,87 %
04.04.2026 01:24 11,3 °C 10,6 °C 6,7 °C 94 % 1014,6 hPa 0,0 l/m² 0 min 0 W/m² 22,5 km/h (4 Bft) 100,00 %
04.04.2026 01:26 11,3 °C 10,6 °C 6,7 °C 94 % 1014,8 hPa 0,0 l/m² 0 min 0 W/m² 19,3 km/h (3 Bft) 100,00 %
04.04.2026 01:28 11,3 °C 10,6 °C 6,7 °C 94 % 1014,8 hPa 0,0 l/m² 0 min 0 W/m² 12,9 km/h (3 Bft) 100,00 %
04.04.2026 01:30 11,3 °C 10,6 °C 6,7 °C 94 % 1014,7 hPa 0,0 l/m² 0 min 0 W/m² 12,9 km/h (3 Bft) 97,87 %
04.04.2026 01:32 11,3 °C 10,6 °C 6,7 °C 94 % 1014,8 hPa 0,0 l/m² 0 min 0 W/m² 19,3 km/h (3 Bft) 97,87 %
04.04.2026 01:34 11,3 °C 10,6 °C 6,7 °C 94 % 1014,8 hPa 0,0 l/m² 0 min 0 W/m² 16,1 km/h (3 Bft) 97,37 %
04.04.2026 01:36 11,3 °C 10,6 °C 6,7 °C 94 % 1014,8 hPa 0,0 l/m² 0 min 0 W/m² 12,9 km/h (3 Bft) 98,00 %
04.04.2026 01:38 11,3 °C 10,6 °C 6,7 °C 94 % 1014,8 hPa 0,0 l/m² 0 min 0 W/m² 16,1 km/h (3 Bft) 93,62 %
04.04.2026 01:40 11,3 °C 10,6 °C 6,7 °C 94 % 1014,8 hPa 0,0 l/m² 0 min 0 W/m² 12,9 km/h (3 Bft) 97,87 %
04.04.2026 01:42 11,3 °C 10,6 °C 6,7 °C 94 % 1014,8 hPa 0,0 l/m² 0 min 0 W/m² 22,5 km/h (4 Bft) 97,62 %
04.04.2026 01:44 11,3 °C 10,6 °C 6,7 °C 94 % 1014,8 hPa 0,0 l/m² 0 min 0 W/m² 9,7 km/h (2 Bft) 97,87 %
04.04.2026 01:46 11,3 °C 10,6 °C 6,7 °C 94 % 1014,9 hPa 0,0 l/m² 0 min 0 W/m² 16,1 km/h (3 Bft) 97,87 %
04.04.2026 01:48 11,3 °C 10,6 °C 7,2 °C 94 % 1015,0 hPa 0,0 l/m² 0 min 0 W/m² 29,0 km/h (5 Bft) 97,87 %
04.04.2026 01:50 11,3 °C 10,6 °C 7,2 °C 94 % 1014,9 hPa 0,0 l/m² 0 min 0 W/m² 16,1 km/h (3 Bft) 97,87 %
04.04.2026 01:52 11,3 °C 10,6 °C 7,2 °C 94 % 1014,9 hPa 0,0 l/m² 0 min 0 W/m² 9,7 km/h (2 Bft) 98,11 %
04.04.2026 01:54 11,3 °C 10,6 °C 7,2 °C 94 % 1015,0 hPa 0,0 l/m² 0 min 0 W/m² 32,2 km/h (5 Bft) 98,00 %
04.04.2026 01:56 11,4 °C 10,6 °C 7,2 °C 94 % 1015,0 hPa 0,0 l/m² 0 min 0 W/m² 19,3 km/h (3 Bft) 97,37 %
04.04.2026 01:58 11,4 °C 10,6 °C 7,2 °C 94 % 1014,9 hPa 0,0 l/m² 0 min 0 W/m² 22,5 km/h (4 Bft) 96,00 %
04.04.2026 02:00 11,4 °C 10,6 °C 7,2 °C 94 % 1014,9 hPa 0,0 l/m² 0 min 0 W/m² 16,1 km/h (3 Bft) 97,87 %
04.04.2026 02:02 11,4 °C 10,6 °C 7,2 °C 94 % 1014,8 hPa 0,0 l/m² 0 min 0 W/m² 16,1 km/h (3 Bft) 98,08 %
04.04.2026 02:04 11,4 °C 10,6 °C 7,2 °C 94 % 1014,8 hPa 0,0 l/m² 0 min 0 W/m² 25,7 km/h (4 Bft) 97,87 %
04.04.2026 02:06 11,4 °C 10,6 °C 7,2 °C 94 % 1014,9 hPa 0,0 l/m² 0 min 0 W/m² 16,1 km/h (3 Bft) 94,87 %
04.04.2026 02:08 11,4 °C 10,6 °C 7,2 °C 94 % 1014,9 hPa 0,0 l/m² 0 min 0 W/m² 16,1 km/h (3 Bft) 97,96 %
04.04.2026 02:10 11,5 °C 11,1 °C 7,2 °C 94 % 1014,9 hPa 0,0 l/m² 0 min 0 W/m² 25,7 km/h (4 Bft) 95,74 %
04.04.2026 02:12 11,5 °C 11,1 °C 7,2 °C 94 % 1015,0 hPa 0,0 l/m² 0 min 0 W/m² 16,1 km/h (3 Bft) 100,00 %
04.04.2026 02:14 11,5 °C 11,1 °C 7,2 °C 94 % 1014,9 hPa 0,0 l/m² 0 min 0 W/m² 16,1 km/h (3 Bft) 97,87 %
04.04.2026 02:16 11,5 °C 11,1 °C 7,2 °C 94 % 1015,0 hPa 0,0 l/m² 0 min 0 W/m² 19,3 km/h (3 Bft) 92,31 %
04.04.2026 02:18 11,5 °C 11,1 °C 7,2 °C 94 % 1015,1 hPa 0,0 l/m² 0 min 0 W/m² 22,5 km/h (4 Bft) 97,87 %
04.04.2026 02:20 11,6 °C 11,1 °C 7,2 °C 94 % 1015,1 hPa 0,0 l/m² 0 min 0 W/m² 16,1 km/h (3 Bft) 97,87 %
04.04.2026 02:22 11,6 °C 11,1 °C 7,2 °C 94 % 1015,0 hPa 0,0 l/m² 0 min 0 W/m² 19,3 km/h (3 Bft) 98,08 %
04.04.2026 02:24 11,6 °C 11,1 °C 7,2 °C 94 % 1015,0 hPa 0,0 l/m² 0 min 0 W/m² 19,3 km/h (3 Bft) 95,74 %
04.04.2026 02:26 11,6 °C 11,1 °C 7,2 °C 94 % 1015,1 hPa 0,0 l/m² 0 min 0 W/m² 19,3 km/h (3 Bft) 97,87 %
04.04.2026 02:28 11,6 °C 11,1 °C 7,2 °C 94 % 1015,1 hPa 0,0 l/m² 0 min 0 W/m² 22,5 km/h (4 Bft) 95,74 %
04.04.2026 02:30 11,6 °C 11,1 °C 7,2 °C 94 % 1015,1 hPa 0,0 l/m² 0 min 0 W/m² 12,9 km/h (3 Bft) 97,87 %
04.04.2026 02:32 11,6 °C 11,1 °C 7,2 °C 94 % 1015,1 hPa 0,0 l/m² 0 min 0 W/m² 16,1 km/h (3 Bft) 97,37 %
04.04.2026 02:34 11,6 °C 11,1 °C 7,2 °C 94 % 1015,2 hPa 0,0 l/m² 0 min 0 W/m² 22,5 km/h (4 Bft) 98,00 %
04.04.2026 02:36 11,6 °C 11,1 °C 7,2 °C 94 % 1015,1 hPa 0,0 l/m² 0 min 0 W/m² 19,3 km/h (3 Bft) 97,87 %
04.04.2026 02:38 11,6 °C 11,1 °C 7,2 °C 94 % 1015,2 hPa 0,0 l/m² 0 min 0 W/m² 32,2 km/h (5 Bft) 97,87 %
04.04.2026 02:40 11,6 °C 11,1 °C 7,2 °C 94 % 1015,1 hPa 0,0 l/m² 0 min 0 W/m² 22,5 km/h (4 Bft) 98,00 %
04.04.2026 02:42 11,6 °C 11,1 °C 7,2 °C 94 % 1015,2 hPa 0,0 l/m² 0 min 0 W/m² 9,7 km/h (2 Bft) 97,87 %
04.04.2026 02:44 11,6 °C 11,1 °C 7,2 °C 94 % 1015,2 hPa 0,0 l/m² 0 min 0 W/m² 16,1 km/h (3 Bft) 97,87 %
04.04.2026 02:46 11,6 °C 11,1 °C 7,2 °C 94 % 1015,1 hPa 0,0 l/m² 0 min 0 W/m² 16,1 km/h (3 Bft) 98,00 %
04.04.2026 02:48 11,7 °C 11,1 °C 7,2 °C 94 % 1015,1 hPa 0,0 l/m² 0 min 0 W/m² 16,1 km/h (3 Bft) 97,14 %
04.04.2026 02:50 11,7 °C 11,1 °C 7,2 °C 94 % 1015,2 hPa 0,0 l/m² 0 min 0 W/m² 9,7 km/h (2 Bft) 100,00 %
04.04.2026 02:52 11,6 °C 11,1 °C 7,2 °C 94 % 1015,2 hPa 0,0 l/m² 0 min 0 W/m² 12,9 km/h (3 Bft) 100,00 %
04.04.2026 02:54 11,7 °C 11,1 °C 7,2 °C 94 % 1015,2 hPa 0,0 l/m² 0 min 0 W/m² 16,1 km/h (3 Bft) 100,00 %
04.04.2026 02:56 11,7 °C 11,1 °C 7,2 °C 94 % 1015,2 hPa 0,0 l/m² 0 min 0 W/m² 19,3 km/h (3 Bft) 98,00 %
04.04.2026 02:58 11,7 °C 11,1 °C 7,2 °C 94 % 1015,2 hPa 0,0 l/m² 0 min 0 W/m² 19,3 km/h (3 Bft) 97,87 %
04.04.2026 03:00 11,7 °C 11,1 °C 7,2 °C 94 % 1015,3 hPa 0,0 l/m² 0 min 0 W/m² 19,3 km/h (3 Bft) 97,87 %
04.04.2026 03:02 11,7 °C 11,1 °C 7,2 °C 94 % 1015,3 hPa 0,0 l/m² 0 min 0 W/m² 16,1 km/h (3 Bft) 95,65 %
04.04.2026 03:04 11,7 °C 11,1 °C 7,2 °C 94 % 1015,3 hPa 0,0 l/m² 0 min 0 W/m² 12,9 km/h (3 Bft) 97,87 %
04.04.2026 03:06 11,7 °C 11,1 °C 7,2 °C 94 % 1015,3 hPa 0,0 l/m² 0 min 0 W/m² 22,5 km/h (4 Bft) 96,00 %
04.04.2026 03:08 11,7 °C 11,1 °C 7,2 °C 94 % 1015,4 hPa 0,0 l/m² 0 min 0 W/m² 9,7 km/h (2 Bft) 97,44 %
04.04.2026 03:10 11,7 °C 11,1 °C 7,2 °C 94 % 1015,4 hPa 0,0 l/m² 0 min 0 W/m² 16,1 km/h (3 Bft) 95,65 %
04.04.2026 03:12 11,7 °C 11,1 °C 7,2 °C 94 % 1015,3 hPa 0,0 l/m² 0 min 0 W/m² 12,9 km/h (3 Bft) 98,11 %
04.04.2026 03:14 11,7 °C 11,1 °C 7,2 °C 94 % 1015,4 hPa 0,0 l/m² 0 min 0 W/m² 29,0 km/h (5 Bft) 97,87 %
04.04.2026 03:16 11,7 °C 11,1 °C 7,2 °C 94 % 1015,3 hPa 0,0 l/m² 0 min 0 W/m² 22,5 km/h (4 Bft) 97,87 %
04.04.2026 03:18 11,7 °C 11,1 °C 7,2 °C 93 % 1015,3 hPa 0,0 l/m² 0 min 0 W/m² 19,3 km/h (3 Bft) 95,83 %
04.04.2026 03:20 11,7 °C 11,1 °C 7,2 °C 93 % 1015,4 hPa 0,0 l/m² 0 min 0 W/m² 16,1 km/h (3 Bft) 98,51 %
04.04.2026 03:22 11,7 °C 11,1 °C 7,2 °C 93 % 1015,3 hPa 0,0 l/m² 0 min 0 W/m² 19,3 km/h (3 Bft) 98,00 %
04.04.2026 03:24 11,7 °C 11,1 °C 7,2 °C 94 % 1015,4 hPa 0,0 l/m² 0 min 0 W/m² 22,5 km/h (4 Bft) 95,74 %
04.04.2026 03:26 11,7 °C 11,1 °C 7,2 °C 94 % 1015,3 hPa 0,0 l/m² 0 min 0 W/m² 12,9 km/h (3 Bft) 97,37 %
04.04.2026 03:28 11,7 °C 11,1 °C 7,2 °C 94 % 1015,4 hPa 0,0 l/m² 0 min 0 W/m² 12,9 km/h (3 Bft) 95,74 %
04.04.2026 03:30 11,7 °C 11,1 °C 7,2 °C 94 % 1015,4 hPa 0,0 l/m² 0 min 0 W/m² 19,3 km/h (3 Bft) 97,87 %
04.04.2026 03:32 11,8 °C 11,1 °C 7,2 °C 94 % 1015,4 hPa 0,0 l/m² 0 min 0 W/m² 29,0 km/h (5 Bft) 97,87 %
04.04.2026 03:34 11,7 °C 11,1 °C 7,2 °C 94 % 1015,3 hPa 0,0 l/m² 0 min 0 W/m² 19,3 km/h (3 Bft) 95,74 %
04.04.2026 03:36 11,7 °C 10,6 °C 6,7 °C 94 % 1015,3 hPa 0,0 l/m² 0 min 0 W/m² 19,3 km/h (3 Bft) 97,87 %
04.04.2026 03:38 11,7 °C 10,6 °C 6,7 °C 94 % 1015,4 hPa 0,0 l/m² 0 min 0 W/m² 16,1 km/h (3 Bft) 98,00 %
04.04.2026 03:40 11,7 °C 10,6 °C 6,7 °C 94 % 1015,3 hPa 0,0 l/m² 0 min 0 W/m² 19,3 km/h (3 Bft) 95,74 %
04.04.2026 03:42 11,7 °C 10,6 °C 6,7 °C 94 % 1015,4 hPa 0,0 l/m² 0 min 0 W/m² 19,3 km/h (3 Bft) 97,87 %
04.04.2026 03:44 11,7 °C 10,6 °C 6,7 °C 94 % 1015,4 hPa 0,0 l/m² 0 min 0 W/m² 16,1 km/h (3 Bft) 97,87 %
04.04.2026 03:46 11,7 °C 10,6 °C 6,7 °C 94 % 1015,4 hPa 0,0 l/m² 0 min 0 W/m² 16,1 km/h (3 Bft) 98,00 %
04.04.2026 03:48 11,7 °C 10,6 °C 6,7 °C 94 % 1015,5 hPa 0,0 l/m² 0 min 0 W/m² 19,3 km/h (3 Bft) 97,62 %
04.04.2026 03:50 11,6 °C 10,6 °C 6,7 °C 94 % 1015,4 hPa 0,0 l/m² 0 min 0 W/m² 16,1 km/h (3 Bft) 100,00 %
04.04.2026 03:52 11,6 °C 10,6 °C 6,7 °C 94 % 1015,4 hPa 0,0 l/m² 0 min 0 W/m² 16,1 km/h (3 Bft) 97,62 %
04.04.2026 03:54 11,6 °C 10,6 °C 6,7 °C 95 % 1015,5 hPa 0,0 l/m² 0 min 0 W/m² 6,4 km/h (2 Bft) 100,00 %
04.04.2026 03:56 11,6 °C 10,6 °C 6,7 °C 95 % 1015,5 hPa 0,0 l/m² 0 min 0 W/m² 6,4 km/h (2 Bft) 97,87 %
04.04.2026 03:58 11,6 °C 10,6 °C 6,7 °C 95 % 1015,6 hPa 0,0 l/m² 0 min 0 W/m² 9,7 km/h (2 Bft) 93,62 %
04.04.2026 04:00 11,6 °C 10,6 °C 6,7 °C 95 % 1015,6 hPa 0,0 l/m² 0 min 0 W/m² 29,0 km/h (5 Bft) 97,87 %
04.04.2026 04:02 11,6 °C 10,6 °C 6,7 °C 95 % 1015,5 hPa 0,0 l/m² 0 min 0 W/m² 12,9 km/h (3 Bft) 100,00 %
04.04.2026 04:04 11,6 °C 10,6 °C 6,7 °C 95 % 1015,6 hPa 0,0 l/m² 0 min 0 W/m² 12,9 km/h (3 Bft) 100,00 %
04.04.2026 04:06 11,6 °C 10,6 °C 6,7 °C 95 % 1015,6 hPa 0,0 l/m² 0 min 0 W/m² 12,9 km/h (3 Bft) 94,00 %
04.04.2026 04:08 11,6 °C 10,6 °C 6,7 °C 95 % 1015,6 hPa 0,0 l/m² 0 min 0 W/m² 12,9 km/h (3 Bft) 96,00 %
04.04.2026 04:10 11,6 °C 10,6 °C 6,7 °C 95 % 1015,6 hPa 0,0 l/m² 0 min 0 W/m² 16,1 km/h (3 Bft) 100,00 %
04.04.2026 04:12 11,6 °C 10,6 °C 6,7 °C 95 % 1015,6 hPa 0,0 l/m² 0 min 0 W/m² 12,9 km/h (3 Bft) 97,87 %
04.04.2026 04:14 11,6 °C 10,6 °C 6,7 °C 95 % 1015,7 hPa 0,0 l/m² 0 min 0 W/m² 16,1 km/h (3 Bft) 96,00 %
04.04.2026 04:16 11,6 °C 10,6 °C 6,7 °C 95 % 1015,7 hPa 0,0 l/m² 0 min 0 W/m² 12,9 km/h (3 Bft) 94,44 %
04.04.2026 04:18 11,5 °C 10,6 °C 6,7 °C 95 % 1015,7 hPa 0,0 l/m² 0 min 0 W/m² 12,9 km/h (3 Bft) 96,55 %
04.04.2026 04:20 11,5 °C 10,6 °C 6,7 °C 95 % 1015,8 hPa 0,0 l/m² 0 min 0 W/m² 12,9 km/h (3 Bft) 94,44 %
04.04.2026 04:22 11,5 °C 10,6 °C 6,7 °C 95 % 1015,8 hPa 0,0 l/m² 0 min 0 W/m² 16,1 km/h (3 Bft) 95,92 %
04.04.2026 04:24 11,5 °C 10,6 °C 6,7 °C 95 % 1015,9 hPa 0,0 l/m² 0 min 0 W/m² 9,7 km/h (2 Bft) 95,74 %
04.04.2026 04:26 11,5 °C 10,6 °C 6,7 °C 95 % 1015,9 hPa 0,0 l/m² 0 min 0 W/m² 25,7 km/h (4 Bft) 93,62 %
04.04.2026 04:28 11,5 °C 10,6 °C 6,7 °C 95 % 1015,9 hPa 0,0 l/m² 0 min 0 W/m² 12,9 km/h (3 Bft) 95,74 %
04.04.2026 04:30 11,5 °C 10,6 °C 6,7 °C 95 % 1015,8 hPa 0,0 l/m² 0 min 0 W/m² 6,4 km/h (2 Bft) 96,00 %
04.04.2026 04:32 11,4 °C 10,6 °C 6,7 °C 95 % 1015,9 hPa 0,0 l/m² 0 min 0 W/m² 16,1 km/h (3 Bft) 95,74 %
04.04.2026 04:34 11,4 °C 10,6 °C 6,7 °C 96 % 1015,9 hPa 0,0 l/m² 0 min 0 W/m² 12,9 km/h (3 Bft) 95,12 %
04.04.2026 04:36 11,4 °C 10,6 °C 6,7 °C 96 % 1015,9 hPa 0,0 l/m² 0 min 0 W/m² 16,1 km/h (3 Bft) 95,74 %
04.04.2026 04:38 11,4 °C 10,6 °C 6,7 °C 96 % 1015,9 hPa 0,0 l/m² 0 min 0 W/m² 12,9 km/h (3 Bft) 95,74 %
04.04.2026 04:40 11,4 °C 10,6 °C 6,7 °C 96 % 1016,0 hPa 0,0 l/m² 0 min 0 W/m² 16,1 km/h (3 Bft) 96,00 %
04.04.2026 04:42 11,4 °C 10,6 °C 6,7 °C 96 % 1016,1 hPa 0,0 l/m² 0 min 0 W/m² 19,3 km/h (3 Bft) 95,74 %
04.04.2026 04:44 11,4 °C 10,6 °C 6,7 °C 96 % 1016,1 hPa 0,0 l/m² 0 min 0 W/m² 16,1 km/h (3 Bft) 93,62 %
04.04.2026 04:46 11,4 °C 10,6 °C 6,7 °C 96 % 1016,1 hPa 0,0 l/m² 0 min 0 W/m² 16,1 km/h (3 Bft) 93,62 %
04.04.2026 04:48 11,4 °C 10,6 °C 6,7 °C 96 % 1016,1 hPa 0,0 l/m² 0 min 0 W/m² 12,9 km/h (3 Bft) 97,87 %
04.04.2026 04:50 11,4 °C 10,6 °C 6,7 °C 96 % 1016,1 hPa 0,0 l/m² 0 min 0 W/m² 12,9 km/h (3 Bft) 97,87 %
04.04.2026 04:52 11,4 °C 10,6 °C 6,7 °C 96 % 1016,1 hPa 0,0 l/m² 0 min 0 W/m² 12,9 km/h (3 Bft) 97,87 %
04.04.2026 04:54 11,3 °C 10,6 °C 6,7 °C 96 % 1016,1 hPa 0,0 l/m² 0 min 0 W/m² 9,7 km/h (2 Bft) 96,00 %
04.04.2026 04:56 11,3 °C 10,6 °C 6,7 °C 96 % 1016,2 hPa 0,0 l/m² 0 min 0 W/m² 12,9 km/h (3 Bft) 95,74 %
04.04.2026 04:58 11,3 °C 10,6 °C 6,7 °C 96 % 1016,2 hPa 0,0 l/m² 0 min 0 W/m² 12,9 km/h (3 Bft) 97,87 %
04.04.2026 05:00 11,3 °C 10,6 °C 6,7 °C 96 % 1016,2 hPa 0,0 l/m² 0 min 0 W/m² 16,1 km/h (3 Bft) 100,00 %
04.04.2026 05:02 11,3 °C 10,6 °C 6,7 °C 96 % 1016,2 hPa 0,0 l/m² 0 min 0 W/m² 12,9 km/h (3 Bft) 100,00 %
04.04.2026 05:04 11,3 °C 10,6 °C 6,7 °C 96 % 1016,2 hPa 0,0 l/m² 0 min 0 W/m² 12,9 km/h (3 Bft) 100,00 %
04.04.2026 05:06 11,3 °C 10,6 °C 6,7 °C 96 % 1016,2 hPa 0,0 l/m² 0 min 0 W/m² 12,9 km/h (3 Bft) 100,00 %
04.04.2026 05:08 11,3 °C 10,6 °C 6,7 °C 96 % 1016,2 hPa 0,0 l/m² 0 min 0 W/m² 16,1 km/h (3 Bft) 100,00 %
04.04.2026 05:10 11,3 °C 10,6 °C 6,7 °C 96 % 1016,3 hPa 0,0 l/m² 0 min 0 W/m² 6,4 km/h (2 Bft) 100,00 %
04.04.2026 05:12 11,3 °C 10,6 °C 6,7 °C 96 % 1016,3 hPa 0,0 l/m² 0 min 0 W/m² 6,4 km/h (2 Bft) 97,87 %
04.04.2026 05:14 11,3 °C 10,6 °C 6,7 °C 96 % 1016,3 hPa 0,0 l/m² 0 min 0 W/m² 9,7 km/h (2 Bft) 100,00 %
04.04.2026 05:16 11,2 °C 10,6 °C 6,7 °C 96 % 1016,3 hPa 0,0 l/m² 0 min 0 W/m² 6,4 km/h (2 Bft) 100,00 %
04.04.2026 05:18 11,2 °C 10,6 °C 6,7 °C 96 % 1016,3 hPa 0,0 l/m² 0 min 0 W/m² 19,3 km/h (3 Bft) 100,00 %
04.04.2026 05:20 11,2 °C 10,6 °C 6,7 °C 96 % 1016,3 hPa 0,0 l/m² 0 min 0 W/m² 16,1 km/h (3 Bft) 97,87 %
04.04.2026 05:22 11,2 °C 10,6 °C 6,7 °C 96 % 1016,3 hPa 0,0 l/m² 0 min 0 W/m² 6,4 km/h (2 Bft) 100,00 %
04.04.2026 05:24 11,2 °C 10,6 °C 6,7 °C 96 % 1016,4 hPa 0,0 l/m² 0 min 0 W/m² 6,4 km/h (2 Bft) 100,00 %
04.04.2026 05:26 11,2 °C 10,6 °C 6,7 °C 96 % 1016,4 hPa 0,0 l/m² 0 min 0 W/m² 12,9 km/h (3 Bft) 100,00 %
04.04.2026 05:28 11,2 °C 10,6 °C 6,7 °C 96 % 1016,4 hPa 0,0 l/m² 0 min 0 W/m² 6,4 km/h (2 Bft) 100,00 %
04.04.2026 05:30 11,2 °C 10,6 °C 6,7 °C 96 % 1016,4 hPa 0,0 l/m² 0 min 0 W/m² 6,4 km/h (2 Bft) 100,00 %
04.04.2026 05:32 11,2 °C 10,6 °C 6,7 °C 96 % 1016,4 hPa 0,0 l/m² 0 min 0 W/m² 3,2 km/h (1 Bft) 100,00 %
04.04.2026 05:34 11,2 °C 10,6 °C 6,7 °C 96 % 1016,4 hPa 0,0 l/m² 0 min 0 W/m² 9,7 km/h (2 Bft) 97,87 %
04.04.2026 05:36 11,2 °C 10,6 °C 6,7 °C 96 % 1016,4 hPa 0,0 l/m² 0 min 0 W/m² 6,4 km/h (2 Bft) 100,00 %
04.04.2026 05:38 11,2 °C 10,6 °C 6,7 °C 96 % 1016,4 hPa 0,0 l/m² 0 min 0 W/m² 9,7 km/h (2 Bft) 100,00 %
04.04.2026 05:40 11,2 °C 10,6 °C 6,7 °C 96 % 1016,5 hPa 0,0 l/m² 0 min 0 W/m² 6,4 km/h (2 Bft) 100,00 %
04.04.2026 05:42 11,2 °C 10,6 °C 6,7 °C 96 % 1016,4 hPa 0,0 l/m² 0 min 0 W/m² 6,4 km/h (2 Bft) 97,96 %
04.04.2026 05:44 11,2 °C 10,6 °C 6,7 °C 96 % 1016,5 hPa 0,0 l/m² 0 min 0 W/m² 6,4 km/h (2 Bft) 97,87 %
04.04.2026 05:46 11,2 °C 10,6 °C 6,7 °C 96 % 1016,5 hPa 0,0 l/m² 0 min 0 W/m² 3,2 km/h (1 Bft) 100,00 %
04.04.2026 05:48 11,2 °C 10,6 °C 6,7 °C 96 % 1016,5 hPa 0,0 l/m² 0 min 0 W/m² 6,4 km/h (2 Bft) 100,00 %
04.04.2026 05:50 11,2 °C 10,6 °C 6,7 °C 96 % 1016,5 hPa 0,0 l/m² 0 min 0 W/m² 6,4 km/h (2 Bft) 98,00 %
04.04.2026 05:52 11,2 °C 10,6 °C 6,7 °C 96 % 1016,5 hPa 0,0 l/m² 0 min 0 W/m² 3,2 km/h (1 Bft) 95,74 %
04.04.2026 05:54 11,2 °C 10,6 °C 6,7 °C 96 % 1016,5 hPa 0,0 l/m² 0 min 0 W/m² 3,2 km/h (1 Bft) 97,87 %
04.04.2026 05:56 11,2 °C 10,6 °C 6,7 °C 96 % 1016,4 hPa 0,0 l/m² 0 min 0 W/m² 3,2 km/h (1 Bft) 97,62 %
04.04.2026 05:58 11,1 °C 10,6 °C 6,7 °C 96 % 1016,5 hPa 0,0 l/m² 0 min 0 W/m² 6,4 km/h (2 Bft) 95,74 %
04.04.2026 06:00 11,1 °C 10,6 °C 6,7 °C 96 % 1016,5 hPa 0,0 l/m² 0 min 0 W/m² 6,4 km/h (2 Bft) 95,74 %
04.04.2026 06:02 11,1 °C 10,6 °C 6,7 °C 96 % 1016,4 hPa 0,0 l/m² 0 min 0 W/m² 3,2 km/h (1 Bft) 93,62 %
04.04.2026 06:04 11,1 °C 10,6 °C 6,7 °C 96 % 1016,5 hPa 0,0 l/m² 0 min 0 W/m² 6,4 km/h (2 Bft) 95,74 %
04.04.2026 06:06 11,1 °C 10,6 °C 6,7 °C 96 % 1016,5 hPa 0,0 l/m² 0 min 0 W/m² 9,7 km/h (2 Bft) 96,23 %
04.04.2026 06:08 11,1 °C 10,6 °C 6,7 °C 96 % 1016,5 hPa 0,0 l/m² 0 min 0 W/m² 9,7 km/h (2 Bft) 94,00 %
04.04.2026 06:10 11,1 °C 10,6 °C 6,7 °C 96 % 1016,5 hPa 0,0 l/m² 0 min 0 W/m² 6,4 km/h (2 Bft) 97,37 %
04.04.2026 06:12 11,1 °C 10,6 °C 6,7 °C 96 % 1016,5 hPa 0,0 l/m² 0 min 0 W/m² 12,9 km/h (3 Bft) 94,00 %
04.04.2026 06:14 11,1 °C 10,6 °C 6,7 °C 96 % 1016,6 hPa 0,0 l/m² 0 min 0 W/m² 3,2 km/h (1 Bft) 95,74 %
04.04.2026 06:16 11,1 °C 10,6 °C 6,7 °C 96 % 1016,7 hPa 0,0 l/m² 0 min 0 W/m² 6,4 km/h (2 Bft) 93,62 %
04.04.2026 06:18 11,1 °C 10,6 °C 6,7 °C 96 % 1016,6 hPa 0,0 l/m² 0 min 0 W/m² 12,9 km/h (3 Bft) 93,62 %
04.04.2026 06:20 11,1 °C 10,6 °C 6,7 °C 96 % 1016,7 hPa 0,0 l/m² 0 min 0 W/m² 9,7 km/h (2 Bft) 95,74 %
04.04.2026 06:22 11,1 °C 10,6 °C 6,7 °C 96 % 1016,7 hPa 0,0 l/m² 0 min 0 W/m² 9,7 km/h (2 Bft) 95,74 %
04.04.2026 06:24 11,1 °C 10,6 °C 6,7 °C 96 % 1016,7 hPa 0,0 l/m² 0 min 0 W/m² 3,2 km/h (1 Bft) 95,74 %
04.04.2026 06:26 11,1 °C 10,6 °C 6,7 °C 96 % 1016,7 hPa 0,0 l/m² 0 min 0 W/m² 3,2 km/h (1 Bft) 94,00 %
04.04.2026 06:28 11,1 °C 10,6 °C 6,7 °C 96 % 1016,8 hPa 0,0 l/m² 0 min 0 W/m² 3,2 km/h (1 Bft) 95,74 %
04.04.2026 06:30 11,1 °C 10,6 °C 6,7 °C 96 % 1016,8 hPa 0,0 l/m² 0 min 0 W/m² 6,4 km/h (2 Bft) 95,74 %
04.04.2026 06:32 11,1 °C 10,6 °C 6,7 °C 96 % 1016,8 hPa 0,0 l/m² 0 min 0 W/m² 6,4 km/h (2 Bft) 95,74 %
04.04.2026 06:34 11,1 °C 10,6 °C 6,7 °C 96 % 1016,8 hPa 0,0 l/m² 0 min 0 W/m² 6,4 km/h (2 Bft) 93,62 %
04.04.2026 06:36 11,1 °C 10,6 °C 6,7 °C 96 % 1016,8 hPa 0,0 l/m² 0 min 0 W/m² 3,2 km/h (1 Bft) 93,48 %
04.04.2026 06:38 11,1 °C 10,6 °C 6,7 °C 96 % 1016,9 hPa 0,0 l/m² 0 min 0 W/m² 3,2 km/h (1 Bft) 97,87 %
04.04.2026 06:40 11,1 °C 10,6 °C 6,7 °C 96 % 1016,9 hPa 0,0 l/m² 0 min 0 W/m² 3,2 km/h (1 Bft) 100,00 %
04.04.2026 06:42 11,1 °C 10,6 °C 6,7 °C 96 % 1016,9 hPa 0,0 l/m² 0 min 0 W/m² 6,4 km/h (2 Bft) 98,00 %
04.04.2026 06:44 11,1 °C 10,6 °C 6,7 °C 96 % 1017,0 hPa 0,0 l/m² 0 min 0 W/m² 6,4 km/h (2 Bft) 97,87 %
04.04.2026 06:46 11,1 °C 10,6 °C 6,7 °C 96 % 1016,9 hPa 0,0 l/m² 0 min 0 W/m² 6,4 km/h (2 Bft) 96,15 %
04.04.2026 06:48 11,1 °C 10,6 °C 6,7 °C 96 % 1017,0 hPa 0,0 l/m² 0 min 0 W/m² 6,4 km/h (2 Bft) 96,00 %
04.04.2026 06:50 11,1 °C 10,6 °C 6,7 °C 96 % 1017,0 hPa 0,2 l/m² 0 min 0 W/m² 6,4 km/h (2 Bft) 100,00 %
04.04.2026 06:52 11,1 °C 10,6 °C 6,7 °C 96 % 1017,1 hPa 0,0 l/m² 0 min 0 W/m² 9,7 km/h (2 Bft) 98,18 %
04.04.2026 06:54 11,1 °C 10,0 °C 6,7 °C 96 % 1017,1 hPa 0,0 l/m² 0 min 0 W/m² 6,4 km/h (2 Bft) 97,87 %
04.04.2026 06:56 11,1 °C 10,0 °C 6,1 °C 96 % 1017,1 hPa 0,0 l/m² 0 min 0 W/m² 6,4 km/h (2 Bft) 97,87 %
04.04.2026 06:58 11,1 °C 10,0 °C 6,1 °C 96 % 1017,1 hPa 0,2 l/m² 0 min 0 W/m² 3,2 km/h (1 Bft) 97,87 %
04.04.2026 07:00 11,1 °C 10,0 °C 6,1 °C 96 % 1017,2 hPa 0,0 l/m² 0 min 0 W/m² 3,2 km/h (1 Bft) 96,00 %
04.04.2026 07:02 11,1 °C 10,0 °C 6,1 °C 96 % 1017,3 hPa 0,0 l/m² 0 min 0 W/m² 3,2 km/h (1 Bft) 95,12 %
04.04.2026 07:04 11,1 °C 10,0 °C 6,1 °C 96 % 1017,2 hPa 0,0 l/m² 0 min 0 W/m² 3,2 km/h (1 Bft) 97,87 %
04.04.2026 07:06 11,1 °C 10,0 °C 6,1 °C 96 % 1017,3 hPa 0,0 l/m² 0 min 0 W/m² 6,4 km/h (2 Bft) 95,74 %
04.04.2026 07:08 11,1 °C 10,0 °C 6,1 °C 96 % 1017,3 hPa 0,0 l/m² 0 min 0 W/m² 3,2 km/h (1 Bft) 97,87 %
04.04.2026 07:10 11,1 °C 10,0 °C 6,1 °C 96 % 1017,4 hPa 0,0 l/m² 0 min 0 W/m² 6,4 km/h (2 Bft) 95,74 %
04.04.2026 07:12 11,1 °C 10,0 °C 6,1 °C 96 % 1017,4 hPa 0,0 l/m² 0 min 0 W/m² 6,4 km/h (2 Bft) 97,87 %
04.04.2026 07:14 11,0 °C 10,0 °C 6,1 °C 96 % 1017,5 hPa 0,0 l/m² 0 min 0 W/m² 19,3 km/h (3 Bft) 97,87 %
04.04.2026 07:16 10,9 °C 10,0 °C 6,1 °C 96 % 1017,5 hPa 0,0 l/m² 0 min 1 W/m² 9,7 km/h (2 Bft) 97,87 %
04.04.2026 07:18 10,9 °C 10,0 °C 6,1 °C 96 % 1017,5 hPa 0,0 l/m² 0 min 5 W/m² 9,7 km/h (2 Bft) 98,00 %
04.04.2026 07:20 10,9 °C 10,0 °C 6,1 °C 96 % 1017,5 hPa 0,0 l/m² 0 min 5 W/m² 9,7 km/h (2 Bft) 97,87 %
04.04.2026 07:22 10,9 °C 10,0 °C 6,1 °C 96 % 1017,5 hPa 0,0 l/m² 0 min 5 W/m² 3,2 km/h (1 Bft) 97,87 %
04.04.2026 07:24 10,9 °C 10,0 °C 6,1 °C 96 % 1017,6 hPa 0,0 l/m² 0 min 6 W/m² 6,4 km/h (2 Bft) 97,87 %
04.04.2026 07:26 10,8 °C 10,0 °C 6,1 °C 96 % 1017,5 hPa 0,0 l/m² 0 min 7 W/m² 9,7 km/h (2 Bft) 97,87 %
04.04.2026 07:28 10,8 °C 10,0 °C 6,1 °C 96 % 1017,6 hPa 0,0 l/m² 0 min 7 W/m² 16,1 km/h (3 Bft) 97,37 %
04.04.2026 07:30 10,8 °C 10,0 °C 6,1 °C 96 % 1017,6 hPa 0,0 l/m² 0 min 9 W/m² 9,7 km/h (2 Bft) 97,87 %
04.04.2026 07:32 10,8 °C 10,0 °C 6,1 °C 96 % 1017,7 hPa 0,0 l/m² 0 min 9 W/m² 3,2 km/h (1 Bft) 97,87 %
04.04.2026 07:34 10,8 °C 10,0 °C 6,1 °C 96 % 1017,7 hPa 0,0 l/m² 0 min 7 W/m² 6,4 km/h (2 Bft) 97,87 %
04.04.2026 07:36 10,8 °C 10,0 °C 6,1 °C 96 % 1017,8 hPa 0,0 l/m² 0 min 7 W/m² 6,4 km/h (2 Bft) 98,15 %
04.04.2026 07:38 10,8 °C 10,0 °C 6,1 °C 96 % 1017,8 hPa 0,0 l/m² 0 min 9 W/m² 3,2 km/h (1 Bft) 100,00 %
04.04.2026 07:40 10,8 °C 10,0 °C 6,1 °C 96 % 1017,8 hPa 0,0 l/m² 0 min 9 W/m² 6,4 km/h (2 Bft) 100,00 %
04.04.2026 07:42 10,8 °C 10,0 °C 6,1 °C 96 % 1017,8 hPa 0,0 l/m² 0 min 11 W/m² 3,2 km/h (1 Bft) 100,00 %
04.04.2026 07:44 10,7 °C 10,0 °C 6,1 °C 96 % 1017,9 hPa 0,0 l/m² 0 min 12 W/m² 6,4 km/h (2 Bft) 100,00 %
04.04.2026 07:46 10,7 °C 10,0 °C 6,1 °C 96 % 1017,9 hPa 0,0 l/m² 0 min 13 W/m² 6,4 km/h (2 Bft) 100,00 %
04.04.2026 07:48 10,7 °C 10,0 °C 6,1 °C 96 % 1017,9 hPa 0,0 l/m² 0 min 14 W/m² 3,2 km/h (1 Bft) 97,96 %
04.04.2026 07:50 10,7 °C 10,0 °C 6,1 °C 96 % 1017,9 hPa 0,0 l/m² 0 min 14 W/m² 3,2 km/h (1 Bft) 100,00 %
04.04.2026 07:52 10,7 °C 10,0 °C 6,1 °C 96 % 1017,9 hPa 0,0 l/m² 0 min 15 W/m² 3,2 km/h (1 Bft) 97,87 %
04.04.2026 07:54 10,7 °C 10,0 °C 6,1 °C 96 % 1018,0 hPa 0,0 l/m² 0 min 18 W/m² 9,7 km/h (2 Bft) 100,00 %
04.04.2026 07:56 10,7 °C 10,0 °C 6,1 °C 96 % 1018,0 hPa 0,0 l/m² 0 min 19 W/m² 6,4 km/h (2 Bft) 97,87 %
04.04.2026 07:58 10,7 °C 10,0 °C 6,1 °C 96 % 1018,1 hPa 0,0 l/m² 0 min 19 W/m² 6,4 km/h (2 Bft) 97,87 %
04.04.2026 08:00 10,7 °C 10,0 °C 6,1 °C 96 % 1018,1 hPa 0,0 l/m² 0 min 22 W/m² 6,4 km/h (2 Bft) 97,87 %
04.04.2026 08:02 10,7 °C 10,0 °C 6,1 °C 96 % 1018,1 hPa 0,0 l/m² 0 min 23 W/m² 6,4 km/h (2 Bft) 93,62 %
04.04.2026 08:04 10,7 °C 10,0 °C 6,1 °C 96 % 1018,2 hPa 0,0 l/m² 0 min 26 W/m² 12,9 km/h (3 Bft) 98,00 %
04.04.2026 08:06 10,7 °C 10,0 °C 6,1 °C 96 % 1018,2 hPa 0,0 l/m² 0 min 29 W/m² 6,4 km/h (2 Bft) 85,11 %
04.04.2026 08:08 10,7 °C 10,0 °C 6,1 °C 96 % 1018,2 hPa 0,0 l/m² 0 min 32 W/m² 6,4 km/h (2 Bft) 64,10 %
04.04.2026 08:10 10,7 °C 10,6 °C 6,1 °C 96 % 1018,2 hPa 0,0 l/m² 0 min 33 W/m² 6,4 km/h (2 Bft) 97,87 %
04.04.2026 08:12 10,7 °C 10,6 °C 6,1 °C 96 % 1018,4 hPa 0,0 l/m² 0 min 31 W/m² 3,2 km/h (1 Bft) 97,87 %
04.04.2026 08:14 10,8 °C 10,6 °C 6,1 °C 96 % 1018,3 hPa 0,0 l/m² 0 min 30 W/m² 3,2 km/h (1 Bft) 94,29 %
04.04.2026 08:16 10,8 °C 10,6 °C 6,7 °C 96 % 1018,4 hPa 0,0 l/m² 0 min 30 W/m² 6,4 km/h (2 Bft) 98,18 %
04.04.2026 08:18 10,8 °C 10,6 °C 6,7 °C 96 % 1018,5 hPa 0,0 l/m² 0 min 31 W/m² 3,2 km/h (1 Bft) 100,00 %
04.04.2026 08:20 10,8 °C 10,6 °C 6,7 °C 96 % 1018,5 hPa 0,0 l/m² 0 min 33 W/m² 6,4 km/h (2 Bft) 95,74 %
04.04.2026 08:22 10,8 °C 10,6 °C 6,7 °C 96 % 1018,5 hPa 0,0 l/m² 0 min 37 W/m² 3,2 km/h (1 Bft) 93,62 %
04.04.2026 08:24 10,8 °C 10,6 °C 6,7 °C 96 % 1018,5 hPa 0,0 l/m² 0 min 37 W/m² 3,2 km/h (1 Bft) 97,87 %
04.04.2026 08:26 10,8 °C 10,6 °C 6,7 °C 96 % 1018,6 hPa 0,0 l/m² 0 min 43 W/m² 0,0 km/h (0 Bft) 100,00 %
04.04.2026 08:28 10,8 °C 10,6 °C 6,7 °C 96 % 1018,6 hPa 0,0 l/m² 0 min 47 W/m² 3,2 km/h (1 Bft) 100,00 %
04.04.2026 08:30 10,8 °C 10,6 °C 6,7 °C 96 % 1018,6 hPa 0,0 l/m² 0 min 47 W/m² 6,4 km/h (2 Bft) 100,00 %
04.04.2026 08:32 10,8 °C 10,6 °C 6,7 °C 96 % 1018,7 hPa 0,0 l/m² 0 min 42 W/m² 3,2 km/h (1 Bft) 100,00 %
04.04.2026 08:34 10,9 °C 10,6 °C 6,7 °C 96 % 1018,7 hPa 0,0 l/m² 0 min 41 W/m² 3,2 km/h (1 Bft) 100,00 %
04.04.2026 08:36 10,9 °C 10,6 °C 6,7 °C 96 % 1018,8 hPa 0,0 l/m² 0 min 40 W/m² 3,2 km/h (1 Bft) 100,00 %
04.04.2026 08:38 10,9 °C 10,6 °C 6,7 °C 96 % 1018,7 hPa 0,0 l/m² 0 min 46 W/m² 0,0 km/h (0 Bft) 100,00 %
04.04.2026 08:40 10,9 °C 10,6 °C 6,7 °C 96 % 1018,8 hPa 0,0 l/m² 0 min 48 W/m² 3,2 km/h (1 Bft) 100,00 %
04.04.2026 08:42 10,9 °C 10,6 °C 6,7 °C 96 % 1018,8 hPa 0,0 l/m² 0 min 49 W/m² 0,0 km/h (0 Bft) 100,00 %
04.04.2026 08:44 10,9 °C 10,6 °C 6,7 °C 96 % 1018,8 hPa 0,0 l/m² 0 min 51 W/m² 3,2 km/h (1 Bft) 100,00 %
04.04.2026 08:46 10,9 °C 10,6 °C 6,7 °C 96 % 1018,8 hPa 0,0 l/m² 0 min 53 W/m² 3,2 km/h (1 Bft) 100,00 %
04.04.2026 08:48 11,0 °C 11,1 °C 6,7 °C 96 % 1018,7 hPa 0,0 l/m² 0 min 53 W/m² 3,2 km/h (1 Bft) 100,00 %
04.04.2026 08:50 11,0 °C 11,1 °C 6,7 °C 96 % 1018,8 hPa 0,0 l/m² 0 min 54 W/m² 0,0 km/h (0 Bft) 95,74 %
04.04.2026 08:52 11,0 °C 11,1 °C 6,7 °C 96 % 1018,8 hPa 0,0 l/m² 0 min 60 W/m² 6,4 km/h (2 Bft) 97,87 %
04.04.2026 08:54 11,1 °C 11,1 °C 6,7 °C 96 % 1018,8 hPa 0,0 l/m² 0 min 70 W/m² 0,0 km/h (0 Bft) 95,92 %
04.04.2026 08:56 11,1 °C 11,1 °C 7,2 °C 96 % 1018,9 hPa 0,0 l/m² 0 min 74 W/m² 0,0 km/h (0 Bft) 95,74 %
04.04.2026 08:58 11,1 °C 11,1 °C 7,2 °C 96 % 1018,9 hPa 0,0 l/m² 0 min 77 W/m² 9,7 km/h (2 Bft) 95,24 %
04.04.2026 09:00 11,1 °C 11,1 °C 7,2 °C 96 % 1018,9 hPa 0,0 l/m² 0 min 82 W/m² 3,2 km/h (1 Bft) 97,87 %
04.04.2026 09:02 11,1 °C 11,1 °C 7,2 °C 96 % 1018,9 hPa 0,0 l/m² 0 min 96 W/m² 3,2 km/h (1 Bft) 93,62 %
04.04.2026 09:04 11,2 °C 11,7 °C 7,2 °C 96 % 1019,0 hPa 0,0 l/m² 0 min 102 W/m² 0,0 km/h (0 Bft) 97,87 %
04.04.2026 09:06 11,2 °C 11,7 °C 7,2 °C 96 % 1019,0 hPa 0,0 l/m² 0 min 113 W/m² 6,4 km/h (2 Bft) 97,87 %
04.04.2026 09:08 11,3 °C 11,7 °C 7,2 °C 96 % 1019,0 hPa 0,0 l/m² 0 min 127 W/m² 3,2 km/h (1 Bft) 98,15 %
04.04.2026 09:10 11,3 °C 11,7 °C 7,8 °C 96 % 1019,1 hPa 0,0 l/m² 0 min 127 W/m² 3,2 km/h (1 Bft) 95,74 %
04.04.2026 09:12 11,3 °C 11,7 °C 7,8 °C 96 % 1019,1 hPa 0,0 l/m² 0 min 128 W/m² 16,1 km/h (3 Bft) 95,74 %
04.04.2026 09:14 11,4 °C 12,2 °C 7,8 °C 96 % 1019,1 hPa 0,0 l/m² 0 min 140 W/m² 6,4 km/h (2 Bft) 97,37 %
04.04.2026 09:16 11,4 °C 12,2 °C 7,8 °C 96 % 1019,1 hPa 0,0 l/m² 0 min 142 W/m² 9,7 km/h (2 Bft) 97,87 %
04.04.2026 09:18 11,4 °C 12,2 °C 7,8 °C 96 % 1019,2 hPa 0,0 l/m² 0 min 116 W/m² 12,9 km/h (3 Bft) 97,87 %
04.04.2026 09:20 11,4 °C 11,7 °C 7,8 °C 96 % 1019,2 hPa 0,0 l/m² 0 min 110 W/m² 3,2 km/h (1 Bft) 98,00 %
04.04.2026 09:22 11,5 °C 12,2 °C 7,8 °C 96 % 1019,1 hPa 0,0 l/m² 0 min 110 W/m² 3,2 km/h (1 Bft) 95,74 %
04.04.2026 09:24 11,5 °C 12,2 °C 7,8 °C 96 % 1019,2 hPa 0,0 l/m² 0 min 116 W/m² 6,4 km/h (2 Bft) 95,74 %
04.04.2026 09:26 11,6 °C 12,2 °C 7,8 °C 96 % 1019,2 hPa 0,0 l/m² 0 min 132 W/m² 6,4 km/h (2 Bft) 96,00 %
04.04.2026 09:28 11,6 °C 12,2 °C 7,8 °C 96 % 1019,2 hPa 0,0 l/m² 0 min 133 W/m² 6,4 km/h (2 Bft) 94,74 %
04.04.2026 09:30 11,6 °C 12,2 °C 7,8 °C 96 % 1019,3 hPa 0,0 l/m² 0 min 122 W/m² 9,7 km/h (2 Bft) 95,74 %
04.04.2026 09:32 11,6 °C 12,2 °C 7,8 °C 96 % 1019,3 hPa 0,0 l/m² 0 min 112 W/m² 6,4 km/h (2 Bft) 93,62 %
04.04.2026 09:34 11,6 °C 12,2 °C 7,8 °C 95 % 1019,3 hPa 0,0 l/m² 0 min 113 W/m² 6,4 km/h (2 Bft) 96,00 %
04.04.2026 09:36 11,6 °C 11,7 °C 7,8 °C 95 % 1019,4 hPa 0,0 l/m² 0 min 106 W/m² 6,4 km/h (2 Bft) 98,00 %
04.04.2026 09:38 11,6 °C 11,7 °C 7,8 °C 95 % 1019,4 hPa 0,0 l/m² 0 min 104 W/m² 3,2 km/h (1 Bft) 96,00 %
04.04.2026 09:40 11,6 °C 11,7 °C 7,8 °C 95 % 1019,4 hPa 0,0 l/m² 0 min 104 W/m² 6,4 km/h (2 Bft) 97,37 %
04.04.2026 09:42 11,7 °C 12,2 °C 7,8 °C 95 % 1019,4 hPa 0,0 l/m² 0 min 101 W/m² 9,7 km/h (2 Bft) 95,74 %
04.04.2026 09:44 11,7 °C 12,2 °C 7,8 °C 95 % 1019,5 hPa 0,0 l/m² 0 min 111 W/m² 9,7 km/h (2 Bft) 95,74 %
04.04.2026 09:46 11,7 °C 12,2 °C 7,8 °C 95 % 1019,5 hPa 0,0 l/m² 0 min 123 W/m² 6,4 km/h (2 Bft) 95,74 %
04.04.2026 09:48 11,7 °C 12,2 °C 7,8 °C 95 % 1019,5 hPa 0,0 l/m² 0 min 122 W/m² 3,2 km/h (1 Bft) 96,00 %
04.04.2026 09:50 11,7 °C 12,2 °C 7,8 °C 95 % 1019,5 hPa 0,0 l/m² 0 min 128 W/m² 6,4 km/h (2 Bft) 92,00 %
04.04.2026 09:52 11,8 °C 12,2 °C 8,3 °C 95 % 1019,5 hPa 0,0 l/m² 0 min 132 W/m² 6,4 km/h (2 Bft) 95,83 %
04.04.2026 09:54 11,8 °C 12,2 °C 8,3 °C 94 % 1019,5 hPa 0,0 l/m² 0 min 112 W/m² 3,2 km/h (1 Bft) 91,49 %
04.04.2026 09:56 11,8 °C 12,2 °C 8,3 °C 94 % 1019,5 hPa 0,0 l/m² 0 min 94 W/m² 0,0 km/h (0 Bft) 93,62 %
04.04.2026 09:58 11,8 °C 12,2 °C 7,8 °C 94 % 1019,6 hPa 0,0 l/m² 0 min 99 W/m² 6,4 km/h (2 Bft) 95,74 %
04.04.2026 10:00 11,8 °C 12,2 °C 7,8 °C 94 % 1019,6 hPa 0,0 l/m² 0 min 89 W/m² 6,4 km/h (2 Bft) 93,62 %
04.04.2026 10:02 11,9 °C 12,2 °C 7,8 °C 94 % 1019,6 hPa 0,0 l/m² 0 min 85 W/m² 6,4 km/h (2 Bft) 97,87 %
04.04.2026 10:04 11,9 °C 12,2 °C 7,8 °C 94 % 1019,7 hPa 0,0 l/m² 0 min 112 W/m² 6,4 km/h (2 Bft) 95,74 %
04.04.2026 10:06 11,9 °C 12,2 °C 7,8 °C 94 % 1019,7 hPa 0,0 l/m² 0 min 150 W/m² 12,9 km/h (3 Bft) 95,74 %
04.04.2026 10:08 11,9 °C 12,2 °C 8,3 °C 94 % 1019,7 hPa 0,0 l/m² 0 min 156 W/m² 9,7 km/h (2 Bft) 94,74 %
04.04.2026 10:10 11,9 °C 12,2 °C 8,3 °C 93 % 1019,7 hPa 0,0 l/m² 0 min 151 W/m² 12,9 km/h (3 Bft) 94,00 %
04.04.2026 10:12 11,9 °C 12,2 °C 8,3 °C 93 % 1019,8 hPa 0,0 l/m² 0 min 158 W/m² 12,9 km/h (3 Bft) 95,74 %
04.04.2026 10:14 11,9 °C 12,2 °C 8,3 °C 93 % 1019,8 hPa 0,0 l/m² 0 min 177 W/m² 12,9 km/h (3 Bft) 93,62 %
04.04.2026 10:16 11,9 °C 12,2 °C 8,3 °C 92 % 1019,8 hPa 0,0 l/m² 0 min 171 W/m² 12,9 km/h (3 Bft) 94,00 %
04.04.2026 10:18 11,9 °C 12,2 °C 8,3 °C 92 % 1019,8 hPa 0,0 l/m² 0 min 173 W/m² 9,7 km/h (2 Bft) 95,74 %
04.04.2026 10:20 11,9 °C 12,8 °C 8,3 °C 92 % 1019,7 hPa 0,0 l/m² 0 min 221 W/m² 9,7 km/h (2 Bft) 97,87 %
04.04.2026 10:22 12,0 °C 13,3 °C 8,9 °C 91 % 1019,8 hPa 0,0 l/m² 2 min 260 W/m² 12,9 km/h (3 Bft) 100,00 %
04.04.2026 10:24 12,1 °C 13,3 °C 8,9 °C 91 % 1019,8 hPa 0,0 l/m² 0 min 213 W/m² 6,4 km/h (2 Bft) 97,87 %
04.04.2026 10:26 12,1 °C 13,3 °C 8,9 °C 91 % 1019,8 hPa 0,0 l/m² 0 min 241 W/m² 6,4 km/h (2 Bft) 100,00 %
04.04.2026 10:28 12,2 °C 13,9 °C 8,9 °C 91 % 1019,8 hPa 0,0 l/m² 2 min 278 W/m² 6,4 km/h (2 Bft) 98,00 %
04.04.2026 10:30 12,3 °C 14,4 °C 9,4 °C 91 % 1019,8 hPa 0,0 l/m² 2 min 261 W/m² 6,4 km/h (2 Bft) 100,00 %
04.04.2026 10:32 12,4 °C 14,4 °C 9,4 °C 91 % 1019,8 hPa 0,0 l/m² 0 min 246 W/m² 16,1 km/h (3 Bft) 100,00 %
04.04.2026 10:34 12,5 °C 13,9 °C 9,4 °C 90 % 1019,9 hPa 0,0 l/m² 2 min 294 W/m² 16,1 km/h (3 Bft) 100,00 %
04.04.2026 10:36 12,5 °C 13,9 °C 9,4 °C 90 % 1020,0 hPa 0,0 l/m² 0 min 201 W/m² 12,9 km/h (3 Bft) 100,00 %
04.04.2026 10:38 12,5 °C 13,3 °C 9,4 °C 89 % 1020,0 hPa 0,0 l/m² 0 min 198 W/m² 9,7 km/h (2 Bft) 100,00 %
04.04.2026 10:40 12,6 °C 13,3 °C 9,4 °C 89 % 1020,0 hPa 0,0 l/m² 0 min 194 W/m² 9,7 km/h (2 Bft) 100,00 %
04.04.2026 10:42 12,6 °C 13,3 °C 9,4 °C 88 % 1020,0 hPa 0,0 l/m² 0 min 192 W/m² 6,4 km/h (2 Bft) 97,87 %
04.04.2026 10:44 12,6 °C 13,3 °C 8,9 °C 87 % 1020,0 hPa 0,0 l/m² 0 min 186 W/m² 12,9 km/h (3 Bft) 100,00 %
04.04.2026 10:46 12,6 °C 13,3 °C 8,9 °C 87 % 1020,0 hPa 0,0 l/m² 0 min 189 W/m² 12,9 km/h (3 Bft) 100,00 %
04.04.2026 10:48 12,6 °C 12,8 °C 8,9 °C 87 % 1020,1 hPa 0,0 l/m² 0 min 181 W/m² 9,7 km/h (2 Bft) 98,11 %
04.04.2026 10:50 12,6 °C 12,8 °C 8,9 °C 87 % 1020,0 hPa 0,0 l/m² 0 min 181 W/m² 6,4 km/h (2 Bft) 100,00 %
04.04.2026 10:52 12,7 °C 12,8 °C 8,9 °C 87 % 1020,1 hPa 0,0 l/m² 0 min 173 W/m² 9,7 km/h (2 Bft) 100,00 %
04.04.2026 10:54 12,7 °C 12,8 °C 8,9 °C 87 % 1020,1 hPa 0,0 l/m² 0 min 180 W/m² 9,7 km/h (2 Bft) 97,87 %
04.04.2026 10:56 12,6 °C 12,8 °C 8,9 °C 87 % 1020,1 hPa 0,0 l/m² 0 min 186 W/m² 6,4 km/h (2 Bft) 100,00 %
04.04.2026 10:58 12,6 °C 12,8 °C 8,9 °C 87 % 1020,1 hPa 0,0 l/m² 0 min 176 W/m² 6,4 km/h (2 Bft) 100,00 %
04.04.2026 11:00 12,7 °C 12,8 °C 8,9 °C 86 % 1020,1 hPa 0,0 l/m² 0 min 172 W/m² 6,4 km/h (2 Bft) 97,87 %
04.04.2026 11:02 12,7 °C 12,8 °C 8,9 °C 86 % 1020,2 hPa 0,0 l/m² 0 min 158 W/m² 6,4 km/h (2 Bft) 100,00 %
04.04.2026 11:04 12,7 °C 12,8 °C 8,9 °C 86 % 1020,1 hPa 0,0 l/m² 0 min 173 W/m² 12,9 km/h (3 Bft) 100,00 %
04.04.2026 11:06 12,7 °C 12,8 °C 8,9 °C 85 % 1020,2 hPa 0,0 l/m² 0 min 184 W/m² 12,9 km/h (3 Bft) 100,00 %
04.04.2026 11:08 12,7 °C 12,8 °C 8,9 °C 85 % 1020,1 hPa 0,0 l/m² 0 min 182 W/m² 9,7 km/h (2 Bft) 100,00 %
04.04.2026 11:10 12,7 °C 12,8 °C 8,9 °C 84 % 1020,3 hPa 0,0 l/m² 0 min 176 W/m² 9,7 km/h (2 Bft) 100,00 %
04.04.2026 11:12 12,6 °C 12,8 °C 8,9 °C 83 % 1020,2 hPa 0,0 l/m² 0 min 168 W/m² 19,3 km/h (3 Bft) 97,22 %
04.04.2026 11:14 12,6 °C 12,8 °C 8,9 °C 83 % 1020,3 hPa 0,0 l/m² 0 min 152 W/m² 16,1 km/h (3 Bft) 100,00 %
04.04.2026 11:16 12,6 °C 12,8 °C 8,9 °C 82 % 1020,3 hPa 0,0 l/m² 0 min 149 W/m² 12,9 km/h (3 Bft) 100,00 %
04.04.2026 11:18 12,6 °C 12,8 °C 8,9 °C 82 % 1020,4 hPa 0,0 l/m² 0 min 138 W/m² 6,4 km/h (2 Bft) 98,00 %
04.04.2026 11:20 12,6 °C 12,8 °C 8,9 °C 81 % 1020,4 hPa 0,0 l/m² 0 min 168 W/m² 6,4 km/h (2 Bft) 100,00 %
04.04.2026 11:22 12,6 °C 12,8 °C 8,9 °C 81 % 1020,4 hPa 0,0 l/m² 0 min 174 W/m² 9,7 km/h (2 Bft) 100,00 %
04.04.2026 11:24 12,6 °C 12,8 °C 8,9 °C 79 % 1020,5 hPa 0,0 l/m² 0 min 186 W/m² 12,9 km/h (3 Bft) 97,87 %
04.04.2026 11:26 12,6 °C 12,8 °C 8,9 °C 79 % 1020,4 hPa 0,0 l/m² 0 min 218 W/m² 12,9 km/h (3 Bft) 100,00 %
04.04.2026 11:28 12,7 °C 13,3 °C 8,9 °C 78 % 1020,4 hPa 0,0 l/m² 0 min 261 W/m² 12,9 km/h (3 Bft) 100,00 %
04.04.2026 11:30 12,7 °C 13,3 °C 9,4 °C 78 % 1020,5 hPa 0,0 l/m² 0 min 260 W/m² 12,9 km/h (3 Bft) 98,00 %
04.04.2026 11:32 12,8 °C 13,9 °C 9,4 °C 78 % 1020,4 hPa 0,0 l/m² 0 min 278 W/m² 9,7 km/h (2 Bft) 97,87 %
04.04.2026 11:34 12,8 °C 13,9 °C 9,4 °C 77 % 1020,4 hPa 0,0 l/m² 0 min 293 W/m² 6,4 km/h (2 Bft) 97,87 %
04.04.2026 11:36 12,9 °C 14,4 °C 9,4 °C 78 % 1020,4 hPa 0,0 l/m² 2 min 306 W/m² 16,1 km/h (3 Bft) 95,74 %
04.04.2026 11:38 13,0 °C 14,4 °C 10,0 °C 77 % 1020,5 hPa 0,0 l/m² 0 min 276 W/m² 6,4 km/h (2 Bft) 98,00 %
04.04.2026 11:40 13,1 °C 13,9 °C 9,4 °C 77 % 1020,5 hPa 0,0 l/m² 0 min 209 W/m² 12,9 km/h (3 Bft) 95,74 %
04.04.2026 11:42 13,1 °C 13,9 °C 9,4 °C 78 % 1020,5 hPa 0,0 l/m² 0 min 185 W/m² 12,9 km/h (3 Bft) 97,37 %
04.04.2026 11:44 13,1 °C 13,3 °C 9,4 °C 78 % 1020,4 hPa 0,0 l/m² 0 min 170 W/m² 16,1 km/h (3 Bft) 98,00 %
04.04.2026 11:46 13,1 °C 13,3 °C 9,4 °C 78 % 1020,4 hPa 0,0 l/m² 0 min 185 W/m² 19,3 km/h (3 Bft) 96,30 %
04.04.2026 11:48 13,1 °C 13,3 °C 9,4 °C 78 % 1020,4 hPa 0,0 l/m² 0 min 211 W/m² 9,7 km/h (2 Bft) 100,00 %
04.04.2026 11:50 13,1 °C 13,3 °C 9,4 °C 78 % 1020,4 hPa 0,0 l/m² 0 min 230 W/m² 9,7 km/h (2 Bft) 93,10 %
04.04.2026 11:52 13,2 °C 13,9 °C 9,4 °C 79 % 1020,4 hPa 0,0 l/m² 0 min 253 W/m² 6,4 km/h (2 Bft) 95,74 %
04.04.2026 11:54 13,2 °C 14,4 °C 9,4 °C 80 % 1020,4 hPa 0,0 l/m² 0 min 288 W/m² 9,7 km/h (2 Bft) 95,74 %
04.04.2026 11:56 13,3 °C 15,0 °C 10,0 °C 80 % 1020,5 hPa 0,0 l/m² 0 min 291 W/m² 12,9 km/h (3 Bft) 95,12 %
04.04.2026 11:58 13,4 °C 16,1 °C 10,6 °C 81 % 1020,4 hPa 0,0 l/m² 0 min 288 W/m² 12,9 km/h (3 Bft) 96,00 %
04.04.2026 12:00 13,4 °C 15,6 °C 10,6 °C 80 % 1020,5 hPa 0,0 l/m² 0 min 308 W/m² 16,1 km/h (3 Bft) 95,12 %
04.04.2026 12:02 13,5 °C 15,6 °C 10,6 °C 80 % 1020,5 hPa 0,0 l/m² 0 min 294 W/m² 6,4 km/h (2 Bft) 93,62 %
04.04.2026 12:04 13,6 °C 15,6 °C 10,6 °C 80 % 1020,5 hPa 0,0 l/m² 2 min 349 W/m² 12,9 km/h (3 Bft) 96,00 %
04.04.2026 12:06 13,7 °C 15,6 °C 10,6 °C 81 % 1020,5 hPa 0,0 l/m² 2 min 374 W/m² 16,1 km/h (3 Bft) 94,12 %
04.04.2026 12:08 13,7 °C 16,1 °C 11,1 °C 80 % 1020,5 hPa 0,0 l/m² 2 min 396 W/m² 12,9 km/h (3 Bft) 97,37 %
04.04.2026 12:10 13,8 °C 17,8 °C 12,8 °C 80 % 1020,4 hPa 0,0 l/m² 2 min 434 W/m² 12,9 km/h (3 Bft) 91,49 %
04.04.2026 12:12 14,0 °C 18,3 °C 12,8 °C 80 % 1020,4 hPa 0,0 l/m² 2 min 446 W/m² 12,9 km/h (3 Bft) 94,00 %
04.04.2026 12:14 14,1 °C 18,3 °C 13,3 °C 80 % 1020,4 hPa 0,0 l/m² 2 min 498 W/m² 3,2 km/h (1 Bft) 97,87 %
04.04.2026 12:16 14,2 °C 20,0 °C 13,9 °C 80 % 1020,4 hPa 0,0 l/m² 2 min 588 W/m² 16,1 km/h (3 Bft) 98,00 %
04.04.2026 12:18 14,3 °C 22,2 °C 16,1 °C 79 % 1020,5 hPa 0,0 l/m² 2 min 675 W/m² 12,9 km/h (3 Bft) 97,83 %
04.04.2026 12:20 14,5 °C 22,2 °C 16,7 °C 79 % 1020,5 hPa 0,0 l/m² 2 min 939 W/m² 19,3 km/h (3 Bft) 97,87 %
04.04.2026 12:22 14,7 °C 23,9 °C 17,8 °C 79 % 1020,4 hPa 0,0 l/m² 2 min 915 W/m² 6,4 km/h (2 Bft) 97,87 %
04.04.2026 12:24 14,9 °C 23,9 °C 17,8 °C 79 % 1020,3 hPa 0,0 l/m² 2 min 904 W/m² 12,9 km/h (3 Bft) 95,74 %
04.04.2026 12:26 15,1 °C 21,1 °C 16,7 °C 78 % 1020,4 hPa 0,0 l/m² 2 min 585 W/m² 22,5 km/h (4 Bft) 100,00 %
04.04.2026 12:28 15,1 °C 18,3 °C 14,4 °C 77 % 1020,3 hPa 0,0 l/m² 0 min 187 W/m² 29,0 km/h (5 Bft) 100,00 %
04.04.2026 12:30 15,0 °C 16,1 °C 13,3 °C 76 % 1020,3 hPa 0,0 l/m² 0 min 114 W/m² 16,1 km/h (3 Bft) 100,00 %
04.04.2026 12:32 14,9 °C 15,0 °C 12,2 °C 76 % 1020,4 hPa 0,0 l/m² 0 min 95 W/m² 19,3 km/h (3 Bft) 97,78 %
04.04.2026 12:34 14,7 °C 14,4 °C 11,1 °C 77 % 1020,4 hPa 0,0 l/m² 0 min 88 W/m² 19,3 km/h (3 Bft) 100,00 %
04.04.2026 12:36 14,5 °C 13,9 °C 11,1 °C 77 % 1020,4 hPa 0,0 l/m² 0 min 94 W/m² 16,1 km/h (3 Bft) 97,87 %
04.04.2026 12:38 14,3 °C 13,9 °C 10,6 °C 78 % 1020,5 hPa 0,0 l/m² 0 min 124 W/m² 25,7 km/h (4 Bft) 100,00 %
04.04.2026 12:40 14,2 °C 13,9 °C 10,6 °C 79 % 1020,4 hPa 0,0 l/m² 0 min 128 W/m² 19,3 km/h (3 Bft) 100,00 %
04.04.2026 12:42 14,1 °C 13,9 °C 10,0 °C 79 % 1020,4 hPa 0,0 l/m² 0 min 119 W/m² 12,9 km/h (3 Bft) 100,00 %
04.04.2026 12:44 14,0 °C 13,3 °C 10,0 °C 79 % 1020,5 hPa 0,0 l/m² 0 min 105 W/m² 16,1 km/h (3 Bft) 97,87 %
04.04.2026 12:46 13,9 °C 13,3 °C 10,0 °C 80 % 1020,5 hPa 0,0 l/m² 0 min 101 W/m² 9,7 km/h (2 Bft) 95,74 %
04.04.2026 12:48 13,8 °C 13,3 °C 10,0 °C 80 % 1020,5 hPa 0,0 l/m² 0 min 108 W/m² 16,1 km/h (3 Bft) 100,00 %
04.04.2026 12:50 13,8 °C 13,3 °C 10,0 °C 81 % 1020,4 hPa 0,0 l/m² 0 min 119 W/m² 12,9 km/h (3 Bft) 100,00 %
04.04.2026 12:52 13,8 °C 13,3 °C 10,0 °C 81 % 1020,4 hPa 0,0 l/m² 0 min 131 W/m² 12,9 km/h (3 Bft) 100,00 %
04.04.2026 12:54 13,7 °C 13,3 °C 10,0 °C 81 % 1020,4 hPa 0,0 l/m² 0 min 134 W/m² 12,9 km/h (3 Bft) 97,87 %
04.04.2026 12:56 13,7 °C 13,9 °C 10,0 °C 81 % 1020,4 hPa 0,0 l/m² 0 min 144 W/m² 12,9 km/h (3 Bft) 100,00 %
04.04.2026 12:58 13,7 °C 13,9 °C 10,0 °C 82 % 1020,4 hPa 0,0 l/m² 0 min 160 W/m² 12,9 km/h (3 Bft) 97,62 %
04.04.2026 13:00 13,7 °C 13,9 °C 10,0 °C 82 % 1020,4 hPa 0,0 l/m² 0 min 188 W/m² 9,7 km/h (2 Bft) 100,00 %
04.04.2026 13:02 13,7 °C 14,4 °C 10,0 °C 82 % 1020,4 hPa 0,0 l/m² 0 min 251 W/m² 3,2 km/h (1 Bft) 100,00 %
04.04.2026 13:04 13,7 °C 15,6 °C 10,6 °C 83 % 1020,4 hPa 0,0 l/m² 0 min 338 W/m² 3,2 km/h (1 Bft) 97,87 %
04.04.2026 13:06 13,8 °C 18,3 °C 11,1 °C 83 % 1020,4 hPa 0,0 l/m² 2 min 524 W/m² 9,7 km/h (2 Bft) 97,87 %
04.04.2026 13:08 14,0 °C 18,9 °C 11,7 °C 83 % 1020,4 hPa 0,0 l/m² 2 min 731 W/m² 6,4 km/h (2 Bft) 97,87 %
04.04.2026 13:10 14,1 °C 18,9 °C 12,2 °C 82 % 1020,4 hPa 0,0 l/m² 2 min 500 W/m² 12,9 km/h (3 Bft) 97,62 %
04.04.2026 13:12 14,3 °C 17,8 °C 11,7 °C 82 % 1020,4 hPa 0,0 l/m² 0 min 330 W/m² 12,9 km/h (3 Bft) 94,00 %
04.04.2026 13:14 14,3 °C 16,7 °C 11,7 °C 81 % 1020,4 hPa 0,0 l/m² 0 min 275 W/m² 9,7 km/h (2 Bft) 100,00 %
04.04.2026 13:16 14,3 °C 16,1 °C 11,7 °C 81 % 1020,4 hPa 0,0 l/m² 0 min 220 W/m² 9,7 km/h (2 Bft) 96,00 %
04.04.2026 13:18 14,3 °C 15,6 °C 11,7 °C 81 % 1020,4 hPa 0,0 l/m² 0 min 205 W/m² 12,9 km/h (3 Bft) 95,74 %
04.04.2026 13:20 14,3 °C 15,0 °C 11,1 °C 80 % 1020,3 hPa 0,0 l/m² 0 min 192 W/m² 16,1 km/h (3 Bft) 97,87 %
04.04.2026 13:22 14,4 °C 15,6 °C 11,1 °C 79 % 1020,4 hPa 0,0 l/m² 0 min 202 W/m² 6,4 km/h (2 Bft) 97,87 %
04.04.2026 13:24 14,4 °C 15,6 °C 11,1 °C 79 % 1020,3 hPa 0,0 l/m² 0 min 234 W/m² 12,9 km/h (3 Bft) 98,00 %
04.04.2026 13:26 14,5 °C 15,6 °C 11,1 °C 79 % 1020,4 hPa 0,0 l/m² 0 min 231 W/m² 12,9 km/h (3 Bft) 97,87 %
04.04.2026 13:28 14,5 °C 15,6 °C 11,1 °C 79 % 1020,3 hPa 0,0 l/m² 0 min 214 W/m² 12,9 km/h (3 Bft) 97,87 %
04.04.2026 13:30 14,6 °C 15,6 °C 11,1 °C 79 % 1020,3 hPa 0,0 l/m² 0 min 189 W/m² 6,4 km/h (2 Bft) 97,83 %
04.04.2026 13:32 14,6 °C 15,0 °C 11,1 °C 79 % 1020,3 hPa 0,0 l/m² 0 min 137 W/m² 9,7 km/h (2 Bft) 98,00 %
04.04.2026 13:34 14,6 °C 15,0 °C 11,1 °C 78 % 1020,3 hPa 0,0 l/m² 0 min 131 W/m² 6,4 km/h (2 Bft) 97,22 %
04.04.2026 13:36 14,6 °C 15,6 °C 11,1 °C 78 % 1020,4 hPa 0,0 l/m² 0 min 194 W/m² 6,4 km/h (2 Bft) 98,18 %
04.04.2026 13:38 14,7 °C 17,2 °C 11,7 °C 78 % 1020,4 hPa 0,0 l/m² 0 min 333 W/m² 12,9 km/h (3 Bft) 97,62 %
04.04.2026 13:40 14,7 °C 19,4 °C 12,2 °C 78 % 1020,3 hPa 0,0 l/m² 2 min 362 W/m² 16,1 km/h (3 Bft) 97,83 %
04.04.2026 13:42 14,9 °C 19,4 °C 13,3 °C 77 % 1020,3 hPa 0,0 l/m² 2 min 362 W/m² 12,9 km/h (3 Bft) 98,00 %
04.04.2026 13:44 15,1 °C 18,9 °C 13,3 °C 76 % 1020,3 hPa 0,0 l/m² 0 min 304 W/m² 6,4 km/h (2 Bft) 93,62 %
04.04.2026 13:46 15,2 °C 17,8 °C 12,8 °C 76 % 1020,4 hPa 0,0 l/m² 0 min 270 W/m² 16,1 km/h (3 Bft) 95,74 %
04.04.2026 13:48 15,3 °C 16,7 °C 12,2 °C 74 % 1020,3 hPa 0,0 l/m² 0 min 243 W/m² 16,1 km/h (3 Bft) 92,68 %
04.04.2026 13:50 15,2 °C 16,1 °C 12,2 °C 71 % 1020,4 hPa 0,0 l/m² 0 min 238 W/m² 19,3 km/h (3 Bft) 98,00 %
04.04.2026 13:52 15,2 °C 16,1 °C 11,7 °C 71 % 1020,4 hPa 0,0 l/m² 0 min 234 W/m² 25,7 km/h (4 Bft) 98,00 %
04.04.2026 13:54 15,2 °C 15,6 °C 11,7 °C 70 % 1020,3 hPa 0,0 l/m² 0 min 243 W/m² 16,1 km/h (3 Bft) 98,00 %
04.04.2026 13:56 15,2 °C 15,6 °C 11,7 °C 70 % 1020,3 hPa 0,0 l/m² 0 min 281 W/m² 19,3 km/h (3 Bft) 95,74 %
04.04.2026 13:58 15,2 °C 16,7 °C 11,7 °C 70 % 1020,4 hPa 0,0 l/m² 0 min 336 W/m² 12,9 km/h (3 Bft) 95,74 %
04.04.2026 14:00 15,2 °C 16,7 °C 11,7 °C 71 % 1020,4 hPa 0,0 l/m² 2 min 360 W/m² 25,7 km/h (4 Bft) 95,74 %
04.04.2026 14:02 15,3 °C 16,7 °C 11,7 °C 70 % 1020,4 hPa 0,0 l/m² 0 min 263 W/m² 16,1 km/h (3 Bft) 97,87 %
04.04.2026 14:04 15,3 °C 16,1 °C 11,7 °C 70 % 1020,4 hPa 0,0 l/m² 0 min 233 W/m² 16,1 km/h (3 Bft) 91,43 %
04.04.2026 14:06 15,3 °C 16,1 °C 11,7 °C 69 % 1020,4 hPa 0,0 l/m² 0 min 269 W/m² 16,1 km/h (3 Bft) 94,34 %
04.04.2026 14:08 15,3 °C 17,2 °C 11,7 °C 68 % 1020,5 hPa 0,0 l/m² 0 min 338 W/m² 19,3 km/h (3 Bft) 92,00 %
04.04.2026 14:10 15,3 °C 20,0 °C 12,2 °C 68 % 1020,4 hPa 0,0 l/m² 2 min 343 W/m² 16,1 km/h (3 Bft) 93,62 %
04.04.2026 14:12 15,6 °C 22,2 °C 12,8 °C 68 % 1020,5 hPa 0,0 l/m² 2 min 343 W/m² 16,1 km/h (3 Bft) 93,62 %
04.04.2026 14:14 15,9 °C 23,3 °C 12,8 °C 67 % 1020,4 hPa 0,0 l/m² 2 min 816 W/m² 22,5 km/h (4 Bft) 89,36 %
04.04.2026 14:16 16,2 °C 23,3 °C 13,3 °C 66 % 1020,4 hPa 0,0 l/m² 2 min 764 W/m² 19,3 km/h (3 Bft) 95,12 %
04.04.2026 14:18 16,4 °C 24,4 °C 13,3 °C 66 % 1020,4 hPa 0,0 l/m² 2 min 637 W/m² 12,9 km/h (3 Bft) 89,36 %
04.04.2026 14:20 16,7 °C 25,0 °C 13,3 °C 66 % 1020,4 hPa 0,0 l/m² 2 min 885 W/m² 12,9 km/h (3 Bft) 93,62 %
04.04.2026 14:22 16,9 °C 25,6 °C 13,9 °C 66 % 1020,4 hPa 0,0 l/m² 2 min 864 W/m² 12,9 km/h (3 Bft) 92,45 %
04.04.2026 14:24 17,2 °C 25,0 °C 13,9 °C 66 % 1020,4 hPa 0,0 l/m² 2 min 868 W/m² 22,5 km/h (4 Bft) 94,74 %
04.04.2026 14:26 17,2 °C 21,7 °C 13,3 °C 63 % 1020,4 hPa 0,0 l/m² 2 min 671 W/m² 19,3 km/h (3 Bft) 91,49 %
04.04.2026 14:28 17,1 °C 20,6 °C 13,3 °C 63 % 1020,4 hPa 0,0 l/m² 2 min 374 W/m² 29,0 km/h (5 Bft) 91,49 %
04.04.2026 14:30 16,9 °C 19,4 °C 12,8 °C 63 % 1020,4 hPa 0,0 l/m² 2 min 345 W/m² 19,3 km/h (3 Bft) 93,62 %
04.04.2026 14:32 16,7 °C 18,3 °C 12,8 °C 64 % 1020,4 hPa 0,0 l/m² 0 min 292 W/m² 16,1 km/h (3 Bft) 93,62 %
04.04.2026 14:34 16,6 °C 17,8 °C 12,8 °C 64 % 1020,4 hPa 0,0 l/m² 0 min 221 W/m² 16,1 km/h (3 Bft) 93,62 %
04.04.2026 14:36 16,4 °C 17,8 °C 12,2 °C 64 % 1020,5 hPa 0,0 l/m² 0 min 214 W/m² 19,3 km/h (3 Bft) 98,00 %
04.04.2026 14:38 16,3 °C 17,8 °C 12,2 °C 65 % 1020,5 hPa 0,0 l/m² 0 min 266 W/m² 6,4 km/h (2 Bft) 98,00 %
04.04.2026 14:40 16,3 °C 18,3 °C 12,2 °C 66 % 1020,5 hPa 0,0 l/m² 0 min 313 W/m² 16,1 km/h (3 Bft) 97,87 %
04.04.2026 14:42 16,2 °C 17,2 °C 12,8 °C 66 % 1020,5 hPa 0,0 l/m² 0 min 304 W/m² 19,3 km/h (3 Bft) 95,65 %
04.04.2026 14:44 16,1 °C 17,2 °C 12,2 °C 67 % 1020,5 hPa 0,0 l/m² 0 min 287 W/m² 16,1 km/h (3 Bft) 100,00 %
04.04.2026 14:46 16,1 °C 17,2 °C 12,2 °C 68 % 1020,5 hPa 0,0 l/m² 0 min 315 W/m² 19,3 km/h (3 Bft) 100,00 %
04.04.2026 14:48 16,1 °C 16,7 °C 12,2 °C 67 % 1020,5 hPa 0,0 l/m² 0 min 311 W/m² 16,1 km/h (3 Bft) 100,00 %
04.04.2026 14:50 16,1 °C 16,7 °C 12,2 °C 67 % 1020,5 hPa 0,0 l/m² 0 min 279 W/m² 16,1 km/h (3 Bft) 97,87 %
04.04.2026 14:52 16,0 °C 16,1 °C 12,2 °C 67 % 1020,5 hPa 0,0 l/m² 0 min 260 W/m² 12,9 km/h (3 Bft) 97,87 %
04.04.2026 14:54 16,0 °C 16,1 °C 12,2 °C 67 % 1020,5 hPa 0,0 l/m² 0 min 226 W/m² 16,1 km/h (3 Bft) 100,00 %
04.04.2026 14:56 15,9 °C 16,1 °C 12,2 °C 67 % 1020,5 hPa 0,0 l/m² 0 min 202 W/m² 22,5 km/h (4 Bft) 100,00 %
04.04.2026 14:58 15,9 °C 16,1 °C 12,2 °C 68 % 1020,5 hPa 0,0 l/m² 0 min 195 W/m² 16,1 km/h (3 Bft) 97,87 %
04.04.2026 15:00 15,8 °C 15,6 °C 11,7 °C 68 % 1020,5 hPa 0,0 l/m² 0 min 189 W/m² 12,9 km/h (3 Bft) 100,00 %
04.04.2026 15:02 15,7 °C 15,6 °C 11,7 °C 68 % 1020,5 hPa 0,0 l/m² 0 min 186 W/m² 29,0 km/h (5 Bft) 98,00 %
04.04.2026 15:04 15,7 °C 15,6 °C 11,7 °C 69 % 1020,5 hPa 0,0 l/m² 0 min 168 W/m² 12,9 km/h (3 Bft) 100,00 %
04.04.2026 15:06 15,6 °C 15,6 °C 11,7 °C 69 % 1020,4 hPa 0,0 l/m² 0 min 156 W/m² 22,5 km/h (4 Bft) 100,00 %
04.04.2026 15:08 15,5 °C 15,6 °C 11,1 °C 69 % 1020,5 hPa 0,0 l/m² 0 min 153 W/m² 16,1 km/h (3 Bft) 100,00 %
04.04.2026 15:10 15,5 °C 15,6 °C 11,1 °C 69 % 1020,5 hPa 0,0 l/m² 0 min 189 W/m² 19,3 km/h (3 Bft) 100,00 %
04.04.2026 15:12 15,4 °C 15,6 °C 11,1 °C 70 % 1020,4 hPa 0,0 l/m² 0 min 238 W/m² 12,9 km/h (3 Bft) 100,00 %
04.04.2026 15:14 15,4 °C 16,1 °C 11,7 °C 71 % 1020,4 hPa 0,0 l/m² 0 min 281 W/m² 6,4 km/h (2 Bft) 100,00 %
04.04.2026 15:16 15,4 °C 16,1 °C 11,7 °C 71 % 1020,4 hPa 0,0 l/m² 0 min 292 W/m² 16,1 km/h (3 Bft) 100,00 %
04.04.2026 15:18 15,4 °C 16,1 °C 11,7 °C 71 % 1020,3 hPa 0,0 l/m² 0 min 270 W/m² 19,3 km/h (3 Bft) 97,87 %
04.04.2026 15:20 15,5 °C 16,1 °C 11,7 °C 71 % 1020,3 hPa 0,0 l/m² 0 min 219 W/m² 12,9 km/h (3 Bft) 98,00 %
04.04.2026 15:22 15,5 °C 16,1 °C 11,7 °C 71 % 1020,3 hPa 0,0 l/m² 0 min 194 W/m² 12,9 km/h (3 Bft) 100,00 %
04.04.2026 15:24 15,6 °C 16,1 °C 11,7 °C 71 % 1020,4 hPa 0,0 l/m² 0 min 178 W/m² 9,7 km/h (2 Bft) 100,00 %
04.04.2026 15:26 15,6 °C 15,6 °C 11,7 °C 71 % 1020,4 hPa 0,0 l/m² 0 min 154 W/m² 19,3 km/h (3 Bft) 100,00 %
04.04.2026 15:28 15,5 °C 15,6 °C 11,7 °C 71 % 1020,4 hPa 0,0 l/m² 0 min 125 W/m² 16,1 km/h (3 Bft) 97,87 %
04.04.2026 15:30 15,4 °C 15,0 °C 11,1 °C 71 % 1020,4 hPa 0,0 l/m² 0 min 118 W/m² 16,1 km/h (3 Bft) 100,00 %
04.04.2026 15:32 15,3 °C 15,0 °C 11,1 °C 71 % 1020,4 hPa 0,0 l/m² 0 min 132 W/m² 16,1 km/h (3 Bft) 100,00 %
04.04.2026 15:34 15,3 °C 15,0 °C 11,1 °C 71 % 1020,4 hPa 0,0 l/m² 0 min 133 W/m² 12,9 km/h (3 Bft) 100,00 %
04.04.2026 15:36 15,2 °C 15,0 °C 11,1 °C 72 % 1020,4 hPa 0,0 l/m² 0 min 136 W/m² 12,9 km/h (3 Bft) 100,00 %
04.04.2026 15:38 15,2 °C 15,0 °C 11,1 °C 73 % 1020,4 hPa 0,0 l/m² 0 min 127 W/m² 12,9 km/h (3 Bft) 97,87 %
04.04.2026 15:40 15,1 °C 14,4 °C 11,1 °C 73 % 1020,4 hPa 0,0 l/m² 0 min 105 W/m² 16,1 km/h (3 Bft) 100,00 %
04.04.2026 15:42 15,1 °C 14,4 °C 11,1 °C 73 % 1020,4 hPa 0,0 l/m² 0 min 123 W/m² 19,3 km/h (3 Bft) 100,00 %
04.04.2026 15:44 15,0 °C 14,4 °C 10,6 °C 73 % 1020,4 hPa 0,0 l/m² 0 min 126 W/m² 19,3 km/h (3 Bft) 100,00 %
04.04.2026 15:46 14,9 °C 14,4 °C 10,6 °C 73 % 1020,4 hPa 0,0 l/m² 0 min 115 W/m² 19,3 km/h (3 Bft) 100,00 %
04.04.2026 15:48 14,9 °C 14,4 °C 10,6 °C 74 % 1020,4 hPa 0,0 l/m² 0 min 145 W/m² 12,9 km/h (3 Bft) 100,00 %
04.04.2026 15:50 14,9 °C 14,4 °C 10,6 °C 74 % 1020,4 hPa 0,0 l/m² 0 min 179 W/m² 16,1 km/h (3 Bft) 97,87 %
04.04.2026 15:52 14,9 °C 15,0 °C 10,6 °C 75 % 1020,3 hPa 0,0 l/m² 0 min 220 W/m² 25,7 km/h (4 Bft) 100,00 %
04.04.2026 15:54 14,9 °C 15,0 °C 11,1 °C 75 % 1020,2 hPa 0,0 l/m² 0 min 250 W/m² 22,5 km/h (4 Bft) 100,00 %
04.04.2026 15:56 14,9 °C 15,6 °C 11,1 °C 75 % 1020,2 hPa 0,0 l/m² 0 min 202 W/m² 12,9 km/h (3 Bft) 97,83 %
04.04.2026 15:58 14,9 °C 15,6 °C 11,1 °C 75 % 1020,3 hPa 0,0 l/m² 0 min 218 W/m² 16,1 km/h (3 Bft) 97,44 %
04.04.2026 16:00 15,0 °C 15,6 °C 11,1 °C 75 % 1020,2 hPa 0,0 l/m² 0 min 238 W/m² 22,5 km/h (4 Bft) 98,00 %
04.04.2026 16:02 15,0 °C 15,6 °C 11,1 °C 75 % 1020,2 hPa 0,0 l/m² 0 min 246 W/m² 9,7 km/h (2 Bft) 97,83 %
04.04.2026 16:04 15,1 °C 15,6 °C 11,1 °C 75 % 1020,2 hPa 0,0 l/m² 0 min 250 W/m² 12,9 km/h (3 Bft) 97,87 %
04.04.2026 16:06 15,1 °C 15,6 °C 11,1 °C 76 % 1020,1 hPa 0,0 l/m² 0 min 243 W/m² 19,3 km/h (3 Bft) 96,61 %
04.04.2026 16:08 15,1 °C 15,6 °C 11,1 °C 76 % 1020,1 hPa 0,0 l/m² 0 min 265 W/m² 16,1 km/h (3 Bft) 97,37 %
04.04.2026 16:10 15,1 °C 15,6 °C 11,7 °C 76 % 1020,1 hPa 0,0 l/m² 0 min 270 W/m² 12,9 km/h (3 Bft) 96,00 %
04.04.2026 16:12 15,2 °C 15,6 °C 11,7 °C 76 % 1020,1 hPa 0,0 l/m² 0 min 239 W/m² 16,1 km/h (3 Bft) 97,44 %
04.04.2026 16:14 15,2 °C 15,6 °C 11,7 °C 76 % 1020,1 hPa 0,0 l/m² 0 min 230 W/m² 16,1 km/h (3 Bft) 97,96 %
04.04.2026 16:16 15,2 °C 15,6 °C 11,7 °C 75 % 1020,0 hPa 0,0 l/m² 0 min 214 W/m² 12,9 km/h (3 Bft) 97,87 %
04.04.2026 16:18 15,3 °C 15,6 °C 11,7 °C 75 % 1020,0 hPa 0,0 l/m² 0 min 194 W/m² 12,9 km/h (3 Bft) 98,00 %
04.04.2026 16:20 15,3 °C 16,1 °C 11,7 °C 76 % 1020,0 hPa 0,0 l/m² 0 min 233 W/m² 12,9 km/h (3 Bft) 98,00 %
04.04.2026 16:22 15,3 °C 16,1 °C 11,7 °C 76 % 1020,0 hPa 0,0 l/m² 2 min 273 W/m² 12,9 km/h (3 Bft) 97,37 %
04.04.2026 16:24 15,3 °C 16,1 °C 11,7 °C 76 % 1020,0 hPa 0,0 l/m² 0 min 261 W/m² 19,3 km/h (3 Bft) 97,87 %
04.04.2026 16:26 15,4 °C 16,1 °C 11,7 °C 76 % 1020,0 hPa 0,0 l/m² 0 min 227 W/m² 9,7 km/h (2 Bft) 97,87 %
04.04.2026 16:28 15,4 °C 16,1 °C 11,7 °C 75 % 1020,0 hPa 0,0 l/m² 0 min 199 W/m² 16,1 km/h (3 Bft) 97,96 %
04.04.2026 16:30 15,4 °C 15,6 °C 11,7 °C 76 % 1020,0 hPa 0,0 l/m² 0 min 170 W/m² 16,1 km/h (3 Bft) 96,00 %
04.04.2026 16:32 15,4 °C 15,6 °C 11,7 °C 75 % 1020,0 hPa 0,0 l/m² 0 min 135 W/m² 16,1 km/h (3 Bft) 98,00 %
04.04.2026 16:34 15,4 °C 15,0 °C 11,1 °C 75 % 1019,9 hPa 0,0 l/m² 0 min 121 W/m² 12,9 km/h (3 Bft) 100,00 %
04.04.2026 16:36 15,4 °C 15,0 °C 11,1 °C 76 % 1020,0 hPa 0,0 l/m² 0 min 96 W/m² 12,9 km/h (3 Bft) 95,74 %
04.04.2026 16:38 15,3 °C 15,0 °C 11,1 °C 76 % 1020,0 hPa 0,0 l/m² 0 min 66 W/m² 6,4 km/h (2 Bft) 97,37 %
04.04.2026 16:40 15,3 °C 15,0 °C 11,1 °C 76 % 1020,0 hPa 0,0 l/m² 0 min 53 W/m² 16,1 km/h (3 Bft) 97,87 %
04.04.2026 16:42 15,3 °C 14,4 °C 11,1 °C 76 % 1020,0 hPa 0,0 l/m² 0 min 54 W/m² 16,1 km/h (3 Bft) 98,00 %
04.04.2026 16:44 15,2 °C 14,4 °C 10,6 °C 76 % 1020,0 hPa 0,0 l/m² 0 min 75 W/m² 12,9 km/h (3 Bft) 95,74 %
04.04.2026 16:46 15,2 °C 14,4 °C 10,6 °C 76 % 1019,9 hPa 0,0 l/m² 0 min 83 W/m² 9,7 km/h (2 Bft) 95,74 %
04.04.2026 16:48 15,2 °C 14,4 °C 10,6 °C 76 % 1019,9 hPa 0,0 l/m² 0 min 99 W/m² 19,3 km/h (3 Bft) 97,87 %
04.04.2026 16:50 15,1 °C 14,4 °C 10,6 °C 77 % 1019,9 hPa 0,0 l/m² 0 min 119 W/m² 12,9 km/h (3 Bft) 97,87 %
04.04.2026 16:52 15,1 °C 15,0 °C 10,6 °C 77 % 1019,8 hPa 0,0 l/m² 0 min 160 W/m² 19,3 km/h (3 Bft) 97,87 %
04.04.2026 16:54 15,1 °C 15,0 °C 11,1 °C 77 % 1019,9 hPa 0,0 l/m² 0 min 182 W/m² 16,1 km/h (3 Bft) 96,23 %
04.04.2026 16:56 15,1 °C 15,0 °C 11,1 °C 77 % 1019,8 hPa 0,0 l/m² 0 min 184 W/m² 19,3 km/h (3 Bft) 95,12 %
04.04.2026 16:58 15,1 °C 15,0 °C 11,1 °C 77 % 1019,8 hPa 0,0 l/m² 0 min 177 W/m² 12,9 km/h (3 Bft) 95,74 %
04.04.2026 17:00 15,1 °C 15,6 °C 11,1 °C 77 % 1019,8 hPa 0,0 l/m² 0 min 189 W/m² 16,1 km/h (3 Bft) 92,00 %
04.04.2026 17:02 15,1 °C 15,6 °C 11,1 °C 77 % 1019,7 hPa 0,0 l/m² 0 min 208 W/m² 25,7 km/h (4 Bft) 95,92 %
04.04.2026 17:04 15,2 °C 15,6 °C 11,1 °C 77 % 1019,6 hPa 0,0 l/m² 0 min 217 W/m² 38,6 km/h (5 Bft) 97,22 %
04.04.2026 17:06 15,2 °C 15,6 °C 11,1 °C 77 % 1019,6 hPa 0,0 l/m² 0 min 221 W/m² 16,1 km/h (3 Bft) 93,88 %
04.04.2026 17:08 15,2 °C 15,6 °C 11,1 °C 77 % 1019,6 hPa 0,0 l/m² 0 min 188 W/m² 12,9 km/h (3 Bft) 95,74 %
04.04.2026 17:10 15,2 °C 15,6 °C 11,1 °C 77 % 1019,6 hPa 0,0 l/m² 0 min 185 W/m² 19,3 km/h (3 Bft) 95,74 %
04.04.2026 17:12 15,3 °C 15,6 °C 11,1 °C 77 % 1019,6 hPa 0,0 l/m² 0 min 186 W/m² 29,0 km/h (5 Bft) 93,62 %
04.04.2026 17:14 15,3 °C 15,6 °C 11,1 °C 77 % 1019,6 hPa 0,0 l/m² 0 min 172 W/m² 25,7 km/h (4 Bft) 96,30 %
04.04.2026 17:16 15,3 °C 15,6 °C 11,1 °C 77 % 1019,6 hPa 0,0 l/m² 0 min 172 W/m² 25,7 km/h (4 Bft) 94,74 %
04.04.2026 17:18 15,3 °C 15,6 °C 11,1 °C 78 % 1019,6 hPa 0,0 l/m² 0 min 178 W/m² 19,3 km/h (3 Bft) 95,74 %
04.04.2026 17:20 15,3 °C 15,0 °C 11,1 °C 77 % 1019,5 hPa 0,0 l/m² 0 min 173 W/m² 29,0 km/h (5 Bft) 95,74 %
04.04.2026 17:22 15,3 °C 15,0 °C 11,1 °C 78 % 1019,5 hPa 0,0 l/m² 0 min 150 W/m² 25,7 km/h (4 Bft) 98,00 %
04.04.2026 17:24 15,2 °C 15,0 °C 11,1 °C 78 % 1019,4 hPa 0,0 l/m² 0 min 148 W/m² 25,7 km/h (4 Bft) 97,87 %
04.04.2026 17:26 15,2 °C 15,0 °C 11,1 °C 78 % 1019,4 hPa 0,0 l/m² 0 min 171 W/m² 12,9 km/h (3 Bft) 98,00 %
04.04.2026 17:28 15,2 °C 15,6 °C 11,1 °C 78 % 1019,3 hPa 0,0 l/m² 0 min 195 W/m² 12,9 km/h (3 Bft) 97,87 %
04.04.2026 17:30 15,2 °C 15,6 °C 11,1 °C 78 % 1019,4 hPa 0,0 l/m² 0 min 198 W/m² 16,1 km/h (3 Bft) 97,62 %
04.04.2026 17:32 15,2 °C 15,6 °C 11,1 °C 79 % 1019,4 hPa 0,0 l/m² 0 min 191 W/m² 19,3 km/h (3 Bft) 96,00 %
04.04.2026 17:34 15,2 °C 15,6 °C 11,1 °C 79 % 1019,3 hPa 0,0 l/m² 0 min 179 W/m² 16,1 km/h (3 Bft) 95,74 %
04.04.2026 17:36 15,2 °C 15,6 °C 11,1 °C 79 % 1019,3 hPa 0,0 l/m² 0 min 186 W/m² 22,5 km/h (4 Bft) 98,00 %
04.04.2026 17:38 15,2 °C 15,6 °C 11,1 °C 79 % 1019,2 hPa 0,0 l/m² 0 min 190 W/m² 22,5 km/h (4 Bft) 97,83 %
04.04.2026 17:40 15,2 °C 15,6 °C 11,1 °C 79 % 1019,1 hPa 0,0 l/m² 0 min 175 W/m² 22,5 km/h (4 Bft) 100,00 %
04.04.2026 17:42 15,2 °C 15,6 °C 11,1 °C 79 % 1019,1 hPa 0,0 l/m² 0 min 153 W/m² 16,1 km/h (3 Bft) 96,77 %
04.04.2026 17:44 15,2 °C 15,6 °C 11,1 °C 79 % 1019,2 hPa 0,0 l/m² 0 min 139 W/m² 22,5 km/h (4 Bft) 97,83 %
04.04.2026 17:46 15,2 °C 15,6 °C 11,1 °C 79 % 1019,1 hPa 0,0 l/m² 0 min 131 W/m² 16,1 km/h (3 Bft) 96,30 %
04.04.2026 17:48 15,2 °C 15,0 °C 11,1 °C 79 % 1019,1 hPa 0,0 l/m² 0 min 145 W/m² 16,1 km/h (3 Bft) 98,00 %
04.04.2026 17:50 15,2 °C 15,0 °C 11,1 °C 79 % 1019,0 hPa 0,0 l/m² 0 min 160 W/m² 29,0 km/h (5 Bft) 100,00 %
04.04.2026 17:52 15,2 °C 15,0 °C 11,1 °C 79 % 1019,0 hPa 0,0 l/m² 2 min 176 W/m² 19,3 km/h (3 Bft) 100,00 %
04.04.2026 17:54 15,2 °C 15,6 °C 11,1 °C 80 % 1019,0 hPa 0,0 l/m² 2 min 193 W/m² 9,7 km/h (2 Bft) 100,00 %
04.04.2026 17:56 15,2 °C 15,6 °C 11,1 °C 80 % 1018,9 hPa 0,0 l/m² 2 min 194 W/m² 12,9 km/h (3 Bft) 100,00 %
04.04.2026 17:58 15,3 °C 16,1 °C 11,1 °C 80 % 1018,9 hPa 0,0 l/m² 2 min 204 W/m² 16,1 km/h (3 Bft) 97,87 %
04.04.2026 18:00 15,3 °C 16,1 °C 11,1 °C 80 % 1018,9 hPa 0,0 l/m² 2 min 195 W/m² 19,3 km/h (3 Bft) 97,87 %
04.04.2026 18:02 15,3 °C 16,1 °C 11,1 °C 79 % 1019,0 hPa 0,0 l/m² 2 min 169 W/m² 16,1 km/h (3 Bft) 96,00 %
04.04.2026 18:04 15,3 °C 16,1 °C 11,1 °C 79 % 1018,9 hPa 0,0 l/m² 2 min 198 W/m² 19,3 km/h (3 Bft) 100,00 %
04.04.2026 18:06 15,4 °C 16,7 °C 11,1 °C 79 % 1018,9 hPa 0,0 l/m² 2 min 257 W/m² 16,1 km/h (3 Bft) 96,67 %
04.04.2026 18:08 15,4 °C 16,7 °C 11,1 °C 79 % 1018,9 hPa 0,0 l/m² 2 min 171 W/m² 9,7 km/h (2 Bft) 97,37 %
04.04.2026 18:10 15,4 °C 16,7 °C 11,1 °C 79 % 1018,9 hPa 0,0 l/m² 2 min 200 W/m² 16,1 km/h (3 Bft) 95,74 %
04.04.2026 18:12 15,4 °C 16,1 °C 11,1 °C 79 % 1018,8 hPa 0,0 l/m² 2 min 157 W/m² 19,3 km/h (3 Bft) 98,00 %
04.04.2026 18:14 15,4 °C 15,6 °C 11,1 °C 79 % 1018,8 hPa 0,0 l/m² 0 min 130 W/m² 19,3 km/h (3 Bft) 97,96 %
04.04.2026 18:16 15,5 °C 15,6 °C 11,1 °C 79 % 1018,8 hPa 0,0 l/m² 0 min 129 W/m² 16,1 km/h (3 Bft) 94,44 %
04.04.2026 18:18 15,5 °C 15,6 °C 11,1 °C 79 % 1018,7 hPa 0,0 l/m² 0 min 128 W/m² 19,3 km/h (3 Bft) 98,08 %
04.04.2026 18:20 15,5 °C 15,6 °C 11,1 °C 79 % 1018,7 hPa 0,0 l/m² 0 min 112 W/m² 16,1 km/h (3 Bft) 97,87 %
04.04.2026 18:22 15,4 °C 15,0 °C 11,1 °C 79 % 1018,6 hPa 0,0 l/m² 0 min 123 W/m² 19,3 km/h (3 Bft) 98,00 %
04.04.2026 18:24 15,4 °C 15,0 °C 11,1 °C 79 % 1018,6 hPa 0,0 l/m² 0 min 130 W/m² 16,1 km/h (3 Bft) 97,87 %
04.04.2026 18:26 15,4 °C 15,6 °C 11,1 °C 79 % 1018,5 hPa 0,0 l/m² 0 min 119 W/m² 19,3 km/h (3 Bft) 97,87 %
04.04.2026 18:28 15,4 °C 15,6 °C 11,1 °C 79 % 1018,5 hPa 0,0 l/m² 2 min 141 W/m² 16,1 km/h (3 Bft) 98,00 %
04.04.2026 18:30 15,4 °C 15,6 °C 11,1 °C 79 % 1018,4 hPa 0,0 l/m² 2 min 153 W/m² 19,3 km/h (3 Bft) 97,14 %
04.04.2026 18:32 15,4 °C 15,6 °C 11,1 °C 79 % 1018,4 hPa 0,0 l/m² 2 min 167 W/m² 9,7 km/h (2 Bft) 98,21 %
04.04.2026 18:34 15,4 °C 15,6 °C 11,1 °C 79 % 1018,3 hPa 0,0 l/m² 2 min 164 W/m² 16,1 km/h (3 Bft) 100,00 %
04.04.2026 18:36 15,5 °C 16,1 °C 11,1 °C 79 % 1018,3 hPa 0,0 l/m² 2 min 149 W/m² 12,9 km/h (3 Bft) 100,00 %
04.04.2026 18:38 15,5 °C 15,6 °C 11,1 °C 79 % 1018,3 hPa 0,0 l/m² 2 min 133 W/m² 16,1 km/h (3 Bft) 100,00 %
04.04.2026 18:40 15,5 °C 15,6 °C 11,1 °C 79 % 1018,2 hPa 0,0 l/m² 2 min 122 W/m² 16,1 km/h (3 Bft) 100,00 %
04.04.2026 18:42 15,6 °C 15,6 °C 11,1 °C 79 % 1018,2 hPa 0,0 l/m² 2 min 112 W/m² 16,1 km/h (3 Bft) 100,00 %
04.04.2026 18:44 15,6 °C 15,6 °C 11,1 °C 79 % 1018,2 hPa 0,0 l/m² 0 min 99 W/m² 12,9 km/h (3 Bft) 100,00 %
04.04.2026 18:46 15,6 °C 15,6 °C 11,1 °C 79 % 1018,2 hPa 0,0 l/m² 0 min 106 W/m² 16,1 km/h (3 Bft) 100,00 %
04.04.2026 18:48 15,6 °C 16,1 °C 11,1 °C 79 % 1018,1 hPa 0,0 l/m² 2 min 145 W/m² 16,1 km/h (3 Bft) 100,00 %
04.04.2026 18:50 15,6 °C 16,1 °C 11,1 °C 79 % 1018,0 hPa 0,0 l/m² 2 min 163 W/m² 16,1 km/h (3 Bft) 100,00 %
04.04.2026 18:52 15,6 °C 16,1 °C 11,1 °C 79 % 1018,0 hPa 0,0 l/m² 2 min 130 W/m² 12,9 km/h (3 Bft) 100,00 %
04.04.2026 18:54 15,6 °C 16,1 °C 11,1 °C 79 % 1018,0 hPa 0,0 l/m² 2 min 147 W/m² 16,1 km/h (3 Bft) 100,00 %
04.04.2026 18:56 15,7 °C 16,1 °C 11,1 °C 79 % 1017,9 hPa 0,0 l/m² 2 min 114 W/m² 16,1 km/h (3 Bft) 100,00 %
04.04.2026 18:58 15,7 °C 15,6 °C 11,1 °C 78 % 1017,9 hPa 0,0 l/m² 2 min 95 W/m² 12,9 km/h (3 Bft) 100,00 %
04.04.2026 19:00 15,7 °C 15,6 °C 11,1 °C 78 % 1017,9 hPa 0,0 l/m² 0 min 75 W/m² 9,7 km/h (2 Bft) 100,00 %
04.04.2026 19:02 15,7 °C 15,6 °C 11,1 °C 78 % 1017,9 hPa 0,0 l/m² 0 min 61 W/m² 19,3 km/h (3 Bft) 100,00 %
04.04.2026 19:04 15,7 °C 15,0 °C 11,1 °C 78 % 1017,8 hPa 0,0 l/m² 0 min 54 W/m² 16,1 km/h (3 Bft) 97,87 %
04.04.2026 19:06 15,7 °C 15,0 °C 11,1 °C 78 % 1017,8 hPa 0,0 l/m² 0 min 46 W/m² 12,9 km/h (3 Bft) 100,00 %
04.04.2026 19:08 15,7 °C 15,0 °C 11,1 °C 78 % 1017,8 hPa 0,0 l/m² 0 min 54 W/m² 12,9 km/h (3 Bft) 100,00 %
04.04.2026 19:10 15,7 °C 15,0 °C 11,1 °C 78 % 1017,8 hPa 0,0 l/m² 0 min 69 W/m² 12,9 km/h (3 Bft) 100,00 %
04.04.2026 19:12 15,6 °C 15,0 °C 10,6 °C 78 % 1017,7 hPa 0,0 l/m² 0 min 68 W/m² 12,9 km/h (3 Bft) 100,00 %
04.04.2026 19:14 15,6 °C 15,0 °C 10,6 °C 78 % 1017,7 hPa 0,0 l/m² 0 min 56 W/m² 16,1 km/h (3 Bft) 97,87 %
04.04.2026 19:16 15,6 °C 15,0 °C 10,6 °C 79 % 1017,6 hPa 0,0 l/m² 0 min 48 W/m² 12,9 km/h (3 Bft) 97,87 %
04.04.2026 19:18 15,6 °C 15,0 °C 10,6 °C 79 % 1017,5 hPa 0,0 l/m² 0 min 39 W/m² 16,1 km/h (3 Bft) 97,87 %
04.04.2026 19:20 15,6 °C 15,0 °C 10,6 °C 78 % 1017,5 hPa 0,0 l/m² 0 min 33 W/m² 12,9 km/h (3 Bft) 95,74 %
04.04.2026 19:22 15,6 °C 14,4 °C 10,6 °C 78 % 1017,5 hPa 0,0 l/m² 0 min 30 W/m² 12,9 km/h (3 Bft) 96,00 %
04.04.2026 19:24 15,6 °C 14,4 °C 10,6 °C 79 % 1017,5 hPa 0,0 l/m² 0 min 28 W/m² 19,3 km/h (3 Bft) 97,87 %
04.04.2026 19:26 15,5 °C 14,4 °C 10,6 °C 78 % 1017,5 hPa 0,0 l/m² 0 min 28 W/m² 16,1 km/h (3 Bft) 95,74 %
04.04.2026 19:28 15,4 °C 14,4 °C 10,6 °C 78 % 1017,5 hPa 0,0 l/m² 0 min 28 W/m² 16,1 km/h (3 Bft) 95,24 %
04.04.2026 19:30 15,4 °C 14,4 °C 10,6 °C 78 % 1017,4 hPa 0,0 l/m² 0 min 28 W/m² 12,9 km/h (3 Bft) 98,11 %
04.04.2026 19:32 15,4 °C 14,4 °C 10,6 °C 78 % 1017,4 hPa 0,0 l/m² 0 min 26 W/m² 19,3 km/h (3 Bft) 95,65 %
04.04.2026 19:34 15,4 °C 14,4 °C 10,6 °C 78 % 1017,4 hPa 0,0 l/m² 0 min 24 W/m² 16,1 km/h (3 Bft) 97,87 %
04.04.2026 19:36 15,3 °C 14,4 °C 10,6 °C 78 % 1017,4 hPa 0,0 l/m² 0 min 21 W/m² 16,1 km/h (3 Bft) 97,44 %
04.04.2026 19:38 15,3 °C 14,4 °C 10,6 °C 78 % 1017,3 hPa 0,0 l/m² 0 min 21 W/m² 9,7 km/h (2 Bft) 93,88 %
04.04.2026 19:40 15,3 °C 14,4 °C 10,6 °C 79 % 1017,3 hPa 0,0 l/m² 0 min 23 W/m² 12,9 km/h (3 Bft) 95,74 %
04.04.2026 19:42 15,3 °C 13,9 °C 10,6 °C 79 % 1017,3 hPa 0,0 l/m² 0 min 22 W/m² 16,1 km/h (3 Bft) 96,00 %
04.04.2026 19:44 15,2 °C 13,9 °C 10,0 °C 79 % 1017,3 hPa 0,0 l/m² 0 min 19 W/m² 16,1 km/h (3 Bft) 98,00 %
04.04.2026 19:46 15,2 °C 13,9 °C 10,0 °C 79 % 1017,3 hPa 0,0 l/m² 0 min 16 W/m² 19,3 km/h (3 Bft) 98,00 %
04.04.2026 19:48 15,1 °C 13,9 °C 10,0 °C 79 % 1017,3 hPa 0,0 l/m² 0 min 14 W/m² 22,5 km/h (4 Bft) 97,87 %
04.04.2026 19:50 15,1 °C 13,9 °C 10,0 °C 79 % 1017,3 hPa 0,0 l/m² 0 min 14 W/m² 12,9 km/h (3 Bft) 94,74 %
04.04.2026 19:52 15,1 °C 13,9 °C 10,0 °C 79 % 1017,3 hPa 0,0 l/m² 0 min 13 W/m² 16,1 km/h (3 Bft) 96,00 %
04.04.2026 19:54 15,0 °C 13,9 °C 10,0 °C 79 % 1017,2 hPa 0,0 l/m² 0 min 13 W/m² 16,1 km/h (3 Bft) 93,62 %
04.04.2026 19:56 15,0 °C 13,9 °C 10,0 °C 79 % 1017,3 hPa 0,0 l/m² 0 min 11 W/m² 19,3 km/h (3 Bft) 95,74 %
04.04.2026 19:58 14,9 °C 13,9 °C 10,0 °C 79 % 1017,2 hPa 0,0 l/m² 0 min 9 W/m² 9,7 km/h (2 Bft) 94,00 %
04.04.2026 20:00 14,9 °C 13,9 °C 10,0 °C 79 % 1017,3 hPa 0,0 l/m² 0 min 6 W/m² 12,9 km/h (3 Bft) 95,74 %
04.04.2026 20:02 14,9 °C 13,9 °C 10,0 °C 80 % 1017,3 hPa 0,0 l/m² 0 min 5 W/m² 9,7 km/h (2 Bft) 95,24 %
04.04.2026 20:04 14,8 °C 13,9 °C 10,0 °C 80 % 1017,3 hPa 0,0 l/m² 0 min 2 W/m² 9,7 km/h (2 Bft) 95,74 %
04.04.2026 20:06 14,8 °C 13,9 °C 10,0 °C 80 % 1017,3 hPa 0,0 l/m² 0 min 0 W/m² 12,9 km/h (3 Bft) 96,55 %
04.04.2026 20:08 14,8 °C 13,9 °C 10,0 °C 80 % 1017,3 hPa 0,0 l/m² 0 min 0 W/m² 22,5 km/h (4 Bft) 91,67 %
04.04.2026 20:10 14,8 °C 13,9 °C 10,0 °C 80 % 1017,3 hPa 0,0 l/m² 0 min 0 W/m² 12,9 km/h (3 Bft) 95,65 %
04.04.2026 20:12 14,7 °C 13,9 °C 10,0 °C 80 % 1017,3 hPa 0,0 l/m² 0 min 0 W/m² 12,9 km/h (3 Bft) 95,74 %
04.04.2026 20:14 14,7 °C 13,9 °C 10,0 °C 80 % 1017,3 hPa 0,0 l/m² 0 min 0 W/m² 12,9 km/h (3 Bft) 95,74 %
04.04.2026 20:16 14,7 °C 13,9 °C 10,0 °C 80 % 1017,3 hPa 0,0 l/m² 0 min 0 W/m² 6,4 km/h (2 Bft) 96,00 %
04.04.2026 20:18 14,7 °C 13,9 °C 10,0 °C 80 % 1017,3 hPa 0,0 l/m² 0 min 0 W/m² 12,9 km/h (3 Bft) 90,00 %
04.04.2026 20:20 14,7 °C 13,9 °C 10,0 °C 80 % 1017,2 hPa 0,0 l/m² 0 min 0 W/m² 6,4 km/h (2 Bft) 95,24 %
04.04.2026 20:22 14,7 °C 13,9 °C 10,0 °C 80 % 1017,2 hPa 0,0 l/m² 0 min 0 W/m² 6,4 km/h (2 Bft) 96,00 %
04.04.2026 20:24 14,7 °C 13,9 °C 10,0 °C 80 % 1017,2 hPa 0,0 l/m² 0 min 0 W/m² 6,4 km/h (2 Bft) 97,37 %
04.04.2026 20:26 14,6 °C 13,9 °C 10,0 °C 80 % 1017,2 hPa 0,0 l/m² 0 min 0 W/m² 9,7 km/h (2 Bft) 94,00 %
04.04.2026 20:28 14,6 °C 13,3 °C 10,0 °C 80 % 1017,2 hPa 0,0 l/m² 0 min 0 W/m² 6,4 km/h (2 Bft) 96,00 %
04.04.2026 20:30 14,6 °C 13,3 °C 9,4 °C 80 % 1017,1 hPa 0,0 l/m² 0 min 0 W/m² 6,4 km/h (2 Bft) 97,87 %
04.04.2026 20:32 14,6 °C 13,3 °C 9,4 °C 80 % 1017,2 hPa 0,0 l/m² 0 min 0 W/m² 6,4 km/h (2 Bft) 97,87 %
04.04.2026 20:34 14,6 °C 13,3 °C 9,4 °C 80 % 1017,2 hPa 0,0 l/m² 0 min 0 W/m² 6,4 km/h (2 Bft) 100,00 %
04.04.2026 20:36 14,6 °C 13,3 °C 9,4 °C 80 % 1017,2 hPa 0,0 l/m² 0 min 0 W/m² 6,4 km/h (2 Bft) 100,00 %
04.04.2026 20:38 14,6 °C 13,3 °C 9,4 °C 80 % 1017,2 hPa 0,0 l/m² 0 min 0 W/m² 3,2 km/h (1 Bft) 100,00 %
04.04.2026 20:40 14,5 °C 13,3 °C 9,4 °C 81 % 1017,2 hPa 0,0 l/m² 0 min 0 W/m² 12,9 km/h (3 Bft) 100,00 %
04.04.2026 20:42 14,4 °C 13,3 °C 9,4 °C 81 % 1017,1 hPa 0,0 l/m² 0 min 0 W/m² 6,4 km/h (2 Bft) 100,00 %
04.04.2026 20:44 14,4 °C 13,3 °C 9,4 °C 81 % 1017,1 hPa 0,0 l/m² 0 min 0 W/m² 12,9 km/h (3 Bft) 100,00 %
04.04.2026 20:46 14,4 °C 13,3 °C 9,4 °C 81 % 1017,1 hPa 0,0 l/m² 0 min 0 W/m² 6,4 km/h (2 Bft) 100,00 %
04.04.2026 20:48 14,3 °C 13,3 °C 9,4 °C 81 % 1017,0 hPa 0,0 l/m² 0 min 0 W/m² 12,9 km/h (3 Bft) 100,00 %
04.04.2026 20:50 14,3 °C 12,8 °C 9,4 °C 81 % 1017,0 hPa 0,0 l/m² 0 min 0 W/m² 6,4 km/h (2 Bft) 100,00 %
04.04.2026 20:52 14,3 °C 12,8 °C 9,4 °C 81 % 1017,0 hPa 0,0 l/m² 0 min 0 W/m² 6,4 km/h (2 Bft) 100,00 %
04.04.2026 20:54 14,3 °C 12,8 °C 9,4 °C 81 % 1017,0 hPa 0,0 l/m² 0 min 0 W/m² 9,7 km/h (2 Bft) 100,00 %
04.04.2026 20:56 14,3 °C 12,8 °C 8,9 °C 81 % 1017,0 hPa 0,0 l/m² 0 min 0 W/m² 12,9 km/h (3 Bft) 100,00 %
04.04.2026 20:58 14,3 °C 12,8 °C 8,9 °C 81 % 1017,0 hPa 0,0 l/m² 0 min 0 W/m² 9,7 km/h (2 Bft) 100,00 %
04.04.2026 21:00 14,3 °C 12,8 °C 8,9 °C 81 % 1016,9 hPa 0,0 l/m² 0 min 0 W/m² 12,9 km/h (3 Bft) 100,00 %
04.04.2026 21:02 14,2 °C 12,8 °C 8,9 °C 81 % 1016,9 hPa 0,0 l/m² 0 min 0 W/m² 6,4 km/h (2 Bft) 100,00 %
04.04.2026 21:04 14,2 °C 12,8 °C 8,9 °C 82 % 1016,9 hPa 0,0 l/m² 0 min 0 W/m² 6,4 km/h (2 Bft) 98,00 %
04.04.2026 21:06 14,1 °C 12,2 °C 8,9 °C 82 % 1016,9 hPa 0,0 l/m² 0 min 0 W/m² 6,4 km/h (2 Bft) 100,00 %
04.04.2026 21:08 14,1 °C 12,2 °C 8,9 °C 82 % 1016,9 hPa 0,0 l/m² 0 min 0 W/m² 6,4 km/h (2 Bft) 100,00 %
04.04.2026 21:10 14,0 °C 12,2 °C 8,9 °C 82 % 1016,8 hPa 0,0 l/m² 0 min 0 W/m² 12,9 km/h (3 Bft) 100,00 %
04.04.2026 21:12 13,9 °C 12,2 °C 8,9 °C 82 % 1016,8 hPa 0,0 l/m² 0 min 0 W/m² 12,9 km/h (3 Bft) 100,00 %
04.04.2026 21:14 13,9 °C 12,2 °C 8,9 °C 82 % 1016,8 hPa 0,0 l/m² 0 min 0 W/m² 6,4 km/h (2 Bft) 100,00 %
04.04.2026 21:16 13,8 °C 12,2 °C 8,9 °C 82 % 1016,9 hPa 0,0 l/m² 0 min 0 W/m² 9,7 km/h (2 Bft) 100,00 %
04.04.2026 21:18 13,8 °C 12,2 °C 8,9 °C 83 % 1016,8 hPa 0,0 l/m² 0 min 0 W/m² 12,9 km/h (3 Bft) 100,00 %
04.04.2026 21:20 13,7 °C 12,2 °C 8,9 °C 83 % 1016,8 hPa 0,0 l/m² 0 min 0 W/m² 9,7 km/h (2 Bft) 100,00 %
04.04.2026 21:22 13,7 °C 12,2 °C 8,9 °C 83 % 1016,8 hPa 0,0 l/m² 0 min 0 W/m² 9,7 km/h (2 Bft) 100,00 %
04.04.2026 21:24 13,7 °C 12,2 °C 8,3 °C 83 % 1016,8 hPa 0,0 l/m² 0 min 0 W/m² 12,9 km/h (3 Bft) 100,00 %
04.04.2026 21:26 13,6 °C 12,2 °C 8,3 °C 83 % 1016,8 hPa 0,0 l/m² 0 min 0 W/m² 9,7 km/h (2 Bft) 100,00 %
04.04.2026 21:28 13,6 °C 12,2 °C 8,3 °C 83 % 1016,8 hPa 0,0 l/m² 0 min 0 W/m² 9,7 km/h (2 Bft) 100,00 %
04.04.2026 21:30 13,6 °C 12,2 °C 8,3 °C 83 % 1016,8 hPa 0,0 l/m² 0 min 0 W/m² 9,7 km/h (2 Bft) 100,00 %
04.04.2026 21:32 13,5 °C 12,2 °C 8,3 °C 83 % 1016,8 hPa 0,0 l/m² 0 min 0 W/m² 9,7 km/h (2 Bft) 100,00 %
04.04.2026 21:34 13,4 °C 12,2 °C 8,3 °C 84 % 1016,7 hPa 0,0 l/m² 0 min 0 W/m² 6,4 km/h (2 Bft) 97,87 %
04.04.2026 21:36 13,4 °C 12,2 °C 8,3 °C 84 % 1016,7 hPa 0,0 l/m² 0 min 0 W/m² 12,9 km/h (3 Bft) 100,00 %
04.04.2026 21:38 13,4 °C 12,2 °C 8,3 °C 84 % 1016,6 hPa 0,0 l/m² 0 min 0 W/m² 12,9 km/h (3 Bft) 97,37 %
04.04.2026 21:40 13,3 °C 12,2 °C 8,3 °C 84 % 1016,6 hPa 0,0 l/m² 0 min 0 W/m² 6,4 km/h (2 Bft) 100,00 %
04.04.2026 21:42 13,3 °C 12,2 °C 8,3 °C 84 % 1016,5 hPa 0,0 l/m² 0 min 0 W/m² 9,7 km/h (2 Bft) 100,00 %
04.04.2026 21:44 13,3 °C 12,2 °C 8,3 °C 84 % 1016,5 hPa 0,0 l/m² 0 min 0 W/m² 9,7 km/h (2 Bft) 97,87 %
04.04.2026 21:46 13,2 °C 12,2 °C 8,3 °C 84 % 1016,6 hPa 0,0 l/m² 0 min 0 W/m² 9,7 km/h (2 Bft) 100,00 %
04.04.2026 21:48 13,2 °C 12,2 °C 8,3 °C 84 % 1016,5 hPa 0,0 l/m² 0 min 0 W/m² 6,4 km/h (2 Bft) 100,00 %
04.04.2026 21:50 13,2 °C 12,2 °C 8,3 °C 84 % 1016,5 hPa 0,0 l/m² 0 min 0 W/m² 16,1 km/h (3 Bft) 97,87 %
04.04.2026 21:52 13,1 °C 12,2 °C 8,3 °C 85 % 1016,5 hPa 0,0 l/m² 0 min 0 W/m² 9,7 km/h (2 Bft) 95,74 %
04.04.2026 21:54 13,1 °C 12,2 °C 8,3 °C 85 % 1016,5 hPa 0,0 l/m² 0 min 0 W/m² 9,7 km/h (2 Bft) 97,87 %
04.04.2026 21:56 13,1 °C 12,2 °C 8,3 °C 85 % 1016,5 hPa 0,0 l/m² 0 min 0 W/m² 16,1 km/h (3 Bft) 96,00 %
04.04.2026 21:58 13,1 °C 12,2 °C 8,3 °C 85 % 1016,5 hPa 0,0 l/m² 0 min 0 W/m² 9,7 km/h (2 Bft) 97,87 %
04.04.2026 22:00 13,1 °C 12,2 °C 8,3 °C 85 % 1016,5 hPa 0,0 l/m² 0 min 0 W/m² 12,9 km/h (3 Bft) 100,00 %
04.04.2026 22:02 13,1 °C 12,2 °C 8,3 °C 85 % 1016,3 hPa 0,0 l/m² 0 min 0 W/m² 16,1 km/h (3 Bft) 97,14 %
04.04.2026 22:04 13,1 °C 12,2 °C 8,3 °C 85 % 1016,3 hPa 0,0 l/m² 0 min 0 W/m² 9,7 km/h (2 Bft) 98,11 %
04.04.2026 22:06 13,1 °C 12,2 °C 8,3 °C 85 % 1016,3 hPa 0,0 l/m² 0 min 0 W/m² 16,1 km/h (3 Bft) 97,96 %
04.04.2026 22:08 13,1 °C 12,2 °C 8,3 °C 85 % 1016,3 hPa 0,0 l/m² 0 min 0 W/m² 12,9 km/h (3 Bft) 93,62 %
04.04.2026 22:10 13,1 °C 12,2 °C 8,3 °C 85 % 1016,3 hPa 0,0 l/m² 0 min 0 W/m² 6,4 km/h (2 Bft) 96,00 %
04.04.2026 22:12 13,1 °C 12,2 °C 8,3 °C 85 % 1016,3 hPa 0,0 l/m² 0 min 0 W/m² 6,4 km/h (2 Bft) 95,12 %
04.04.2026 22:14 13,1 °C 11,7 °C 8,3 °C 85 % 1016,2 hPa 0,0 l/m² 0 min 0 W/m² 6,4 km/h (2 Bft) 93,62 %
04.04.2026 22:16 13,1 °C 11,7 °C 8,3 °C 85 % 1016,1 hPa 0,0 l/m² 0 min 0 W/m² 12,9 km/h (3 Bft) 96,23 %
04.04.2026 22:18 13,0 °C 11,7 °C 8,3 °C 85 % 1016,1 hPa 0,0 l/m² 0 min 0 W/m² 6,4 km/h (2 Bft) 93,62 %
04.04.2026 22:20 13,0 °C 11,7 °C 7,8 °C 85 % 1016,1 hPa 0,0 l/m² 0 min 0 W/m² 3,2 km/h (1 Bft) 55,32 %
04.04.2026 22:22 12,9 °C 11,7 °C 7,8 °C 85 % 1016,1 hPa 0,0 l/m² 0 min 0 W/m² 12,9 km/h (3 Bft) 97,87 %
04.04.2026 22:24 12,9 °C 11,7 °C 7,8 °C 85 % 1016,0 hPa 0,0 l/m² 0 min 0 W/m² 9,7 km/h (2 Bft) 94,74 %
04.04.2026 22:26 12,9 °C 11,7 °C 7,8 °C 85 % 1016,1 hPa 0,0 l/m² 0 min 0 W/m² 6,4 km/h (2 Bft) 94,00 %
04.04.2026 22:28 12,8 °C 11,7 °C 7,8 °C 85 % 1015,9 hPa 0,0 l/m² 0 min 0 W/m² 12,9 km/h (3 Bft) 98,00 %
04.04.2026 22:30 12,8 °C 11,7 °C 7,8 °C 85 % 1015,9 hPa 0,0 l/m² 0 min 0 W/m² 9,7 km/h (2 Bft) 92,00 %
04.04.2026 22:32 12,8 °C 11,7 °C 7,8 °C 86 % 1015,9 hPa 0,0 l/m² 0 min 0 W/m² 6,4 km/h (2 Bft) 94,74 %
04.04.2026 22:34 12,8 °C 11,7 °C 7,8 °C 85 % 1015,9 hPa 0,0 l/m² 0 min 0 W/m² 6,4 km/h (2 Bft) 95,74 %
04.04.2026 22:36 12,7 °C 11,7 °C 7,8 °C 85 % 1015,8 hPa 0,0 l/m² 0 min 0 W/m² 12,9 km/h (3 Bft) 92,00 %
04.04.2026 22:38 12,7 °C 11,7 °C 7,8 °C 86 % 1015,7 hPa 0,0 l/m² 0 min 0 W/m² 9,7 km/h (2 Bft) 91,49 %
04.04.2026 22:40 12,7 °C 11,7 °C 7,8 °C 86 % 1015,7 hPa 0,0 l/m² 0 min 0 W/m² 12,9 km/h (3 Bft) 93,48 %
04.04.2026 22:42 12,6 °C 11,7 °C 7,8 °C 86 % 1015,7 hPa 0,0 l/m² 0 min 0 W/m² 16,1 km/h (3 Bft) 95,74 %
04.04.2026 22:44 12,6 °C 11,7 °C 7,8 °C 86 % 1015,7 hPa 0,0 l/m² 0 min 0 W/m² 12,9 km/h (3 Bft) 95,74 %
04.04.2026 22:46 12,6 °C 11,7 °C 7,8 °C 86 % 1015,6 hPa 0,0 l/m² 0 min 0 W/m² 16,1 km/h (3 Bft) 92,00 %
04.04.2026 22:48 12,6 °C 11,7 °C 7,8 °C 86 % 1015,6 hPa 0,0 l/m² 0 min 0 W/m² 12,9 km/h (3 Bft) 95,74 %
04.04.2026 22:50 12,6 °C 11,7 °C 7,8 °C 86 % 1015,6 hPa 0,0 l/m² 0 min 0 W/m² 12,9 km/h (3 Bft) 93,62 %
04.04.2026 22:52 12,5 °C 11,7 °C 7,8 °C 86 % 1015,6 hPa 0,0 l/m² 0 min 0 W/m² 6,4 km/h (2 Bft) 94,74 %
04.04.2026 22:54 12,5 °C 11,7 °C 7,8 °C 86 % 1015,5 hPa 0,0 l/m² 0 min 0 W/m² 12,9 km/h (3 Bft) 94,00 %
04.04.2026 22:56 12,5 °C 11,7 °C 7,8 °C 86 % 1015,5 hPa 0,0 l/m² 0 min 0 W/m² 12,9 km/h (3 Bft) 93,62 %
04.04.2026 22:58 12,4 °C 11,7 °C 7,8 °C 86 % 1015,5 hPa 0,0 l/m² 0 min 0 W/m² 12,9 km/h (3 Bft) 97,87 %
04.04.2026 23:00 12,4 °C 11,7 °C 7,8 °C 86 % 1015,5 hPa 0,0 l/m² 0 min 0 W/m² 16,1 km/h (3 Bft) 98,00 %
04.04.2026 23:02 12,4 °C 11,7 °C 7,8 °C 86 % 1015,4 hPa 0,0 l/m² 0 min 0 W/m² 6,4 km/h (2 Bft) 95,74 %
04.04.2026 23:04 12,4 °C 11,1 °C 7,8 °C 86 % 1015,4 hPa 0,0 l/m² 0 min 0 W/m² 3,2 km/h (1 Bft) 95,74 %
04.04.2026 23:06 12,3 °C 11,1 °C 7,8 °C 86 % 1015,4 hPa 0,0 l/m² 0 min 0 W/m² 12,9 km/h (3 Bft) 100,00 %
04.04.2026 23:08 12,3 °C 11,1 °C 7,8 °C 86 % 1015,3 hPa 0,0 l/m² 0 min 0 W/m² 12,9 km/h (3 Bft) 95,74 %
04.04.2026 23:10 12,3 °C 11,1 °C 7,8 °C 86 % 1015,3 hPa 0,0 l/m² 0 min 0 W/m² 12,9 km/h (3 Bft) 98,00 %
04.04.2026 23:12 12,3 °C 11,1 °C 7,2 °C 86 % 1015,3 hPa 0,0 l/m² 0 min 0 W/m² 9,7 km/h (2 Bft) 97,87 %
04.04.2026 23:14 12,2 °C 11,1 °C 7,2 °C 86 % 1015,3 hPa 0,0 l/m² 0 min 0 W/m² 12,9 km/h (3 Bft) 97,87 %
04.04.2026 23:16 12,2 °C 11,1 °C 7,2 °C 87 % 1015,2 hPa 0,0 l/m² 0 min 0 W/m² 6,4 km/h (2 Bft) 100,00 %
04.04.2026 23:18 12,2 °C 11,1 °C 7,2 °C 87 % 1015,1 hPa 0,0 l/m² 0 min 0 W/m² 12,9 km/h (3 Bft) 100,00 %
04.04.2026 23:20 12,1 °C 11,1 °C 7,2 °C 87 % 1015,2 hPa 0,0 l/m² 0 min 0 W/m² 9,7 km/h (2 Bft) 97,96 %
04.04.2026 23:22 12,1 °C 11,1 °C 7,2 °C 87 % 1015,3 hPa 0,0 l/m² 0 min 0 W/m² 12,9 km/h (3 Bft) 97,87 %
04.04.2026 23:24 12,1 °C 11,1 °C 7,2 °C 87 % 1015,2 hPa 0,0 l/m² 0 min 0 W/m² 6,4 km/h (2 Bft) 100,00 %
04.04.2026 23:26 12,1 °C 11,1 °C 7,2 °C 87 % 1015,3 hPa 0,0 l/m² 0 min 0 W/m² 9,7 km/h (2 Bft) 100,00 %
04.04.2026 23:28 12,1 °C 11,1 °C 7,2 °C 87 % 1015,3 hPa 0,0 l/m² 0 min 0 W/m² 16,1 km/h (3 Bft) 100,00 %
04.04.2026 23:30 12,0 °C 11,1 °C 7,2 °C 87 % 1015,2 hPa 0,0 l/m² 0 min 0 W/m² 16,1 km/h (3 Bft) 100,00 %
04.04.2026 23:32 12,0 °C 11,1 °C 7,2 °C 87 % 1015,2 hPa 0,0 l/m² 0 min 0 W/m² 16,1 km/h (3 Bft) 100,00 %
04.04.2026 23:34 11,9 °C 11,1 °C 7,2 °C 87 % 1015,2 hPa 0,0 l/m² 0 min 0 W/m² 6,4 km/h (2 Bft) 100,00 %
04.04.2026 23:36 11,9 °C 10,6 °C 7,2 °C 87 % 1015,1 hPa 0,0 l/m² 0 min 0 W/m² 12,9 km/h (3 Bft) 100,00 %
04.04.2026 23:38 11,9 °C 10,6 °C 7,2 °C 87 % 1015,1 hPa 0,0 l/m² 0 min 0 W/m² 16,1 km/h (3 Bft) 100,00 %
04.04.2026 23:40 11,9 °C 11,1 °C 7,2 °C 87 % 1015,2 hPa 0,0 l/m² 0 min 0 W/m² 12,9 km/h (3 Bft) 100,00 %
04.04.2026 23:42 11,9 °C 11,1 °C 7,2 °C 88 % 1015,1 hPa 0,0 l/m² 0 min 0 W/m² 12,9 km/h (3 Bft) 98,00 %
04.04.2026 23:44 11,8 °C 11,1 °C 7,2 °C 87 % 1015,1 hPa 0,0 l/m² 0 min 0 W/m² 12,9 km/h (3 Bft) 97,87 %
04.04.2026 23:46 11,8 °C 10,6 °C 7,2 °C 87 % 1015,0 hPa 0,0 l/m² 0 min 0 W/m² 9,7 km/h (2 Bft) 97,87 %
04.04.2026 23:48 11,8 °C 10,6 °C 7,2 °C 88 % 1015,0 hPa 0,0 l/m² 0 min 0 W/m² 9,7 km/h (2 Bft) 97,87 %
04.04.2026 23:50 11,8 °C 10,6 °C 7,2 °C 88 % 1014,9 hPa 0,0 l/m² 0 min 0 W/m² 6,4 km/h (2 Bft) 97,56 %
04.04.2026 23:52 11,8 °C 10,6 °C 7,2 °C 88 % 1014,9 hPa 0,0 l/m² 0 min 0 W/m² 16,1 km/h (3 Bft) 97,87 %
04.04.2026 23:54 11,8 °C 10,6 °C 7,2 °C 88 % 1014,9 hPa 0,0 l/m² 0 min 0 W/m² 9,7 km/h (2 Bft) 95,92 %
04.04.2026 23:56 11,8 °C 10,6 °C 7,2 °C 88 % 1014,9 hPa 0,0 l/m² 0 min 0 W/m² 16,1 km/h (3 Bft) 97,87 %
04.04.2026 23:58 11,7 °C 10,6 °C 7,2 °C 88 % 1014,8 hPa 0,0 l/m² 0 min 0 W/m² 6,4 km/h (2 Bft) 94,00 %
_ Min-Zeit 07:44 06:54 06:56 14:26 00:10 - - - 08:26 22:20
Minimum _ 10,7 °C 10,0 °C 6,1 °C 63 % 1014,2 hPa - - - 0,0 km/h (0 Bft) 55,32 %
_ Max-Zeit 14:24 14:22 12:22 04:34 11:24 06:50 10:22 12:20 17:04 00:00
Maximum _ 17,2 °C 25,6 °C 17,8 °C 96 % 1020,5 hPa 0,2 l/m² 2 min 939 W/m² 38,6 km/h
S (5 Bft)
100,00 %
Durchschnitt _ 13,0 °C 13,0 °C 8,8 °C 86 % 1017,8 hPa #0,5 l/m² #2:00 h 178 W/m² 13,0 km/h (3 Bft) 97,35 %
© 2026 W. Hausmann